Another Hard Day at the Office Weather Stats

 
 
 

High monthly outside Temperature, 22.8 , C
Low monthly outside Temperature, -1.0 , C
High yearly outside Temperature, 30.9 , C
Low yearly outside Temperature, -2.2 , C

Low monthly barometer, 1001.1 , mb
High monthly barometer, 1028.0 , mb
Low yearly barometer, 975.0 , mb
High yearly barometer 1041.1 , mb

High wind speed, 25.0 , mph
Time of High wind speed, 21:37 , mph
High monthly wind speed, 47.0 , mph
High yearly wind speed, 55.0 , mph

 

 




3126
                    Temp     Hi    Low   Out    Dew  Wind  Wind   Wind    Hi    Hi   Wind   Heat    THW                Rain    Heat    Cool    In     In    In     In     In   In Air  Wind  Wind    ISS   Arc.
  Date    Time     Out   Temp   Temp   Hum    Pt. Speed   Dir    Run Speed   Dir  Chill  Index  Index   Bar    Rain  Rate    D-D     D-D    Temp   Hum    Dew   Heat    EMC Density  Samp   Tx   Recept  Int.
---------------------------------------------------------------------------------------------------------------------------------------------------------------------------------------------------------------
21/02/17   0:05    8.7    8.7    8.7    97    8.3   4.0   WSW   0.33  10.0   WSW    7.9    9.0    8.2  1018.5  0.00  0.00   0.033   0.000   20.0    54   10.4   19.5  10.03  .0747    116    1    100.0    5 
21/02/17   0:10    8.8    8.8    8.7    97    8.4   2.0     W   0.17   7.0   WNW    8.8    9.1    9.1  1018.5  0.00  0.00   0.033   0.000   20.0    54   10.4   19.5  10.03  .0747    117    1    100.0    5 
21/02/17   0:15    9.0    9.0    8.8    97    8.5   2.0   WSW   0.17   7.0   WNW    9.0    9.3    9.3  1018.6  0.00  0.00   0.032   0.000   20.0    54   10.4   19.5  10.03  .0747    117    1    100.0    5 
21/02/17   0:20    9.2    9.2    9.0    97    8.7   1.0   WSW   0.08   4.0     W    9.2    9.4    9.4  1018.6  0.00  0.00   0.032   0.000   20.0    54   10.4   19.5  10.03  .0747    116    1    100.0    5 
21/02/17   0:25    9.3    9.3    9.2    98    9.0   1.0     W   0.08   4.0     W    9.3    9.6    9.6  1018.6  0.00  0.00   0.031   0.000   20.0    54   10.4   19.5  10.03  .0747    117    1    100.0    5 
21/02/17   0:30    9.4    9.4    9.3    97    8.9   1.0   WSW   0.08   7.0   WSW    9.4    9.7    9.7  1018.5  0.00  0.00   0.031   0.000   19.9    54   10.4   19.4  10.03  .0747    117    1    100.0    5 
21/02/17   0:35    9.5    9.5    9.4    97    9.0   1.0   WSW   0.08   7.0   WSW    9.5    9.8    9.8  1018.4  0.00  0.00   0.031   0.000   19.9    54   10.4   19.4  10.03  .0747    117    1    100.0    5 
21/02/17   0:40    9.4    9.5    9.4    97    9.0   3.0     W   0.25   9.0   WSW    9.2    9.7    9.4  1018.3  0.00  0.00   0.031   0.000   19.9    54   10.4   19.4  10.03  .0747    117    1    100.0    5 
21/02/17   0:45    9.5    9.6    9.4    97    9.0   2.0   WSW   0.17   8.0     W    9.5    9.8    9.8  1018.2  0.00  0.00   0.031   0.000   19.9    54   10.4   19.4  10.03  .0747    117    1    100.0    5 
21/02/17   0:50    9.4    9.5    9.4    97    9.0   4.0   WSW   0.33  10.0   WSW    8.7    9.7    9.0  1018.3  0.00  0.00   0.031   0.000   19.9    54   10.3   19.4  10.04  .0747    116    1    100.0    5 
21/02/17   0:55    9.6    9.6    9.4    97    9.1   4.0     W   0.33  12.0     W    8.8    9.8    9.1  1018.2  0.00  0.00   0.030   0.000   19.9    54   10.3   19.4  10.04  .0747    118    1    100.0    5 
21/02/17   1:00    9.6    9.6    9.6    97    9.1   6.0   WSW   0.50  12.0   WSW    8.2    9.8    8.4  1018.1  0.00  0.00   0.030   0.000   19.8    54   10.3   19.3  10.04  .0747    117    1    100.0    5 
21/02/17   1:05    9.4    9.6    9.4    97    9.0   5.0   WSW   0.42  11.0   WSW    8.3    9.7    8.6  1018.1  0.00  0.00   0.031   0.000   19.8    54   10.3   19.3  10.04  .0747    116    1    100.0    5 
21/02/17   1:10    9.2    9.4    9.2    97    8.8   7.0   WSW   0.58  12.0   WSW    7.5    9.5    7.8  1018.1  0.00  0.00   0.032   0.000   19.8    54   10.3   19.3  10.04  .0747    114    1    100.0    5 
21/02/17   1:15    9.2    9.3    9.2    97    8.8   5.0     W   0.42  13.0   WSW    8.1    9.5    8.4  1018.1  0.00  0.00   0.032   0.000   19.8    54   10.2   19.3  10.05  .0747    117    1    100.0    5 
21/02/17   1:20    9.1    9.2    9.1    97    8.7   7.0     W   0.58  15.0   WSW    7.4    9.4    7.7  1018.1  0.00  0.00   0.032   0.000   19.8    54   10.2   19.3  10.05  .0747    117    1    100.0    5 
21/02/17   1:25    9.2    9.2    9.1    97    8.7   8.0     W   0.67  16.0   WSW    7.1    9.4    7.3  1018.1  0.00  0.00   0.032   0.000   19.7    54   10.1   19.2  10.05  .0747    115    1    100.0    5 
21/02/17   1:30    9.2    9.2    9.2    97    8.8   8.0     W   0.67  17.0     W    7.1    9.5    7.4  1018.2  0.00  0.00   0.032   0.000   19.7    54   10.1   19.2  10.05  .0747    117    1    100.0    5 
21/02/17   1:35    9.2    9.2    9.2    97    8.7   9.0     W   0.75  15.0     W    6.7    9.4    7.0  1018.2  0.00  0.00   0.032   0.000   19.7    54   10.1   19.1  10.05  .0747    117    1    100.0    5 
21/02/17   1:40    9.2    9.2    9.2    97    8.8   9.0     W   0.75  16.0     W    6.8    9.5    7.1  1018.2  0.00  0.00   0.032   0.000   19.7    53    9.8   19.1   9.90  .0748    116    1    100.0    5 
21/02/17   1:45    9.2    9.3    9.2    97    8.8   8.0     W   0.67  16.0     W    7.1    9.5    7.4  1018.3  0.00  0.00   0.032   0.000   19.6    53    9.8   19.0   9.90  .0748    117    1    100.0    5 
21/02/17   1:50    9.3    9.3    9.2    97    8.8   9.0     W   0.75  16.0     W    6.8    9.6    7.1  1018.2  0.00  0.00   0.031   0.000   19.6    53    9.8   19.0   9.90  .0748    117    1    100.0    5 
21/02/17   1:55    9.3    9.3    9.3    97    8.8  10.0     W   0.83  18.0     W    6.6    9.6    6.8  1018.2  0.00  0.00   0.031   0.000   19.6    53    9.7   18.9   9.91  .0748    117    1    100.0    5 
21/02/17   2:00    9.2    9.3    9.2    97    8.8  10.0   WSW   0.83  18.0     W    6.5    9.5    6.8  1018.1  0.00  0.00   0.032   0.000   19.6    53    9.7   18.9   9.91  .0748    117    1    100.0    5 
21/02/17   2:05    9.2    9.2    9.2    97    8.7  11.0   WSW   0.92  16.0   WSW    6.2    9.4    6.4  1018.0  0.00  0.00   0.032   0.000   19.5    53    9.7   18.9   9.91  .0748    116    1    100.0    5 
21/02/17   2:10    8.9    9.1    8.9    96    8.3  10.0   WSW   0.83  16.0     W    6.2    9.2    6.4  1018.2  0.00  0.00   0.033   0.000   19.5    53    9.7   18.9   9.91  .0748    117    1    100.0    5 
21/02/17   2:15    8.7    8.9    8.7    97    8.2   9.0   WSW   0.75  14.0   WSW    6.1    8.9    6.3  1018.0  0.00  0.00   0.034   0.000   19.4    53    9.6   18.8   9.91  .0748    116    1    100.0    5 
21/02/17   2:20    8.6    8.7    8.6    97    8.1   8.0   WSW   0.67  14.0     W    6.3    8.8    6.6  1018.0  0.00  0.00   0.034   0.000   19.4    53    9.6   18.8   9.91  .0748    117    1    100.0    5 
21/02/17   2:25    8.6    8.6    8.6    97    8.2  10.0     W   0.83  16.0     W    5.8    8.8    6.0  1018.0  0.00  0.00   0.034   0.000   19.4    53    9.6   18.8   9.91  .0748    117    1    100.0    5 
21/02/17   2:30    8.7    8.7    8.6    97    8.2  11.0     W   0.92  17.0     W    5.6    8.9    5.8  1018.0  0.00  0.00   0.034   0.000   19.4    53    9.6   18.8   9.91  .0748    117    1    100.0    5 
21/02/17   2:35    8.7    8.7    8.7    97    8.2   9.0     W   0.75  16.0     W    6.1    8.9    6.3  1017.9  0.00  0.00   0.034   0.000   19.4    53    9.6   18.8   9.91  .0748    115    1    100.0    5 
21/02/17   2:40    8.6    8.7    8.6    97    8.2   9.0     W   0.75  16.0     W    6.1    8.8    6.3  1018.0  0.00  0.00   0.034   0.000   19.4    53    9.6   18.8   9.91  .0748    117    1    100.0    5 
21/02/17   2:45    8.6    8.6    8.6    97    8.2   8.0     W   0.67  16.0   WSW    6.4    8.8    6.6  1018.0  0.00  0.00   0.034   0.000   19.3    53    9.5   18.7   9.91  .0749    117    1    100.0    5 
21/02/17   2:50    8.6    8.6    8.6    97    8.1   7.0     W   0.58  14.0     W    6.7    8.8    6.9  1018.0  0.00  0.00   0.034   0.000   19.3    53    9.5   18.7   9.91  .0748    117    1    100.0    5 
21/02/17   2:55    8.6    8.6    8.6    97    8.2   5.0     W   0.42  14.0   WSW    7.4    8.8    7.6  1018.0  0.00  0.00   0.034   0.000   19.3    53    9.5   18.6   9.92  .0749    117    1    100.0    5 
21/02/17   3:00    8.6    8.6    8.6    97    8.1   5.0     W   0.42  13.0     W    7.3    8.8    7.6  1018.0  0.00  0.00   0.034   0.000   19.3    53    9.5   18.6   9.92  .0749    116    1    100.0    5 
21/02/17   3:05    8.5    8.6    8.5    97    8.1   5.0     W   0.42  11.0   WSW    7.3    8.7    7.5  1018.0  0.00  0.00   0.034   0.000   19.2    54    9.7   18.6  10.09  .0749    118    1    100.0    5 
21/02/17   3:10    8.5    8.6    8.5    97    8.1   5.0     W   0.42  13.0   WSW    7.3    8.7    7.5  1018.0  0.00  0.00   0.034   0.000   19.2    54    9.7   18.6  10.09  .0749    117    1    100.0    5 
21/02/17   3:15    8.4    8.5    8.4    97    8.0   4.0     W   0.33  10.0     W    7.6    8.7    7.8  1018.0  0.00  0.00   0.034   0.000   19.2    54    9.7   18.6  10.09  .0749    116    1    100.0    5 
21/02/17   3:20    8.4    8.4    8.4    97    8.0   5.0     W   0.42  13.0     W    7.2    8.7    7.4  1018.1  0.00  0.00   0.034   0.000   19.2    54    9.7   18.6  10.09  .0749    117    1    100.0    5 
21/02/17   3:25    8.6    8.6    8.4    98    8.3   5.0     W   0.42  12.0     W    7.3    8.8    7.6  1018.0  0.00  0.00   0.034   0.000   19.2    54    9.6   18.6  10.09  .0749    116    1    100.0    5 
21/02/17   3:30    8.7    8.7    8.6    98    8.4   7.0     W   0.58  17.0     W    6.8    8.9    7.1  1018.0  0.00  0.00   0.034   0.000   19.2    54    9.6   18.6  10.09  .0749    117    1    100.0    5 
21/02/17   3:35    8.7    8.7    8.7    97    8.3   9.0     W   0.75  17.0     W    6.2    9.0    6.4  1018.0  0.00  0.00   0.033   0.000   19.2    54    9.6   18.6  10.09  .0749    116    1    100.0    5 
21/02/17   3:40    8.8    8.8    8.7    97    8.3   8.0     W   0.67  18.0     W    6.6    9.1    6.9  1017.9  0.00  0.00   0.033   0.000   19.1    54    9.6   18.5  10.09  .0749    116    1    100.0    5 
21/02/17   3:45    8.8    8.8    8.8    97    8.3   6.0     W   0.50  12.0   WSW    7.3    9.1    7.6  1017.9  0.00  0.00   0.033   0.000   19.1    54    9.6   18.5  10.09  .0749    117    1    100.0    5 
21/02/17   3:50    8.8    8.8    8.8    97    8.3   8.0     W   0.67  15.0     W    6.6    9.1    6.9  1017.9  0.00  0.00   0.033   0.000   19.1    54    9.5   18.4  10.10  .0749    117    1    100.0    5 
21/02/17   3:55    8.7    8.8    8.7    97    8.3   9.0   WSW   0.75  14.0     W    6.2    9.0    6.4  1017.9  0.00  0.00   0.033   0.000   19.1    54    9.5   18.4  10.10  .0749    117    1    100.0    5 
21/02/17   4:00    8.7    8.7    8.7    97    8.2   7.0     W   0.58  14.0     W    6.8    8.9    7.1  1017.9  0.00  0.00   0.034   0.000   19.0    54    9.5   18.3  10.10  .0749    117    1    100.0    5 
21/02/17   4:05    8.6    8.7    8.6    97    8.1   6.0   WSW   0.50  14.0   WSW    7.0    8.8    7.2  1017.8  0.00  0.00   0.034   0.000   19.0    54    9.5   18.3  10.10  .0749    116    1    100.0    5 
21/02/17   4:10    8.5    8.6    8.5    97    8.1   6.0   WSW   0.50  12.0     W    6.9    8.7    7.2  1017.8  0.00  0.00   0.034   0.000   19.0    54    9.5   18.3  10.10  .0749    116    1    100.0    5 
21/02/17   4:15    8.4    8.5    8.4    97    7.9   4.0   WSW   0.33   9.0   WSW    7.5    8.6    7.7  1017.8  0.00  0.00   0.035   0.000   18.9    54    9.4   18.3  10.11  .0749    116    1    100.0    5 
21/02/17   4:20    8.3    8.4    8.3    97    7.9   5.0   WSW   0.42  10.0   WSW    7.1    8.6    7.3  1017.7  0.00  0.00   0.035   0.000   18.9    54    9.4   18.3  10.11  .0749    117    1    100.0    5 
21/02/17   4:25    8.3    8.3    8.3    97    7.8   4.0   WSW   0.33   8.0     W    7.4    8.5    7.6  1017.7  0.00  0.00   0.035   0.000   18.9    54    9.4   18.3  10.11  .0749    116    1    100.0    5 
21/02/17   4:30    8.3    8.3    8.3    97    7.8   3.0     W   0.25   8.0     W    7.9    8.5    8.1  1017.9  0.00  0.00   0.035   0.000   18.9    54    9.4   18.2  10.11  .0750    116    1    100.0    5 
21/02/17   4:35    8.3    8.3    8.3    97    7.8   4.0   WSW   0.33   8.0     W    7.4    8.5    7.6  1017.9  0.00  0.00   0.035   0.000   18.9    54    9.4   18.2  10.11  .0750    116    1    100.0    5 
21/02/17   4:40    8.3    8.3    8.3    97    7.8   4.0   WSW   0.33   8.0   WSW    7.4    8.5    7.6  1018.0  0.00  0.00   0.035   0.000   18.9    54    9.4   18.2  10.11  .0750    116    1    100.0    5 
21/02/17   4:45    8.3    8.3    8.3    97    7.9   8.0   WSW   0.67  12.0   WSW    6.1    8.6    6.3  1017.9  0.00  0.00   0.035   0.000   18.9    54    9.4   18.2  10.11  .0750    117    1    100.0    5 
21/02/17   4:50    8.3    8.3    8.3    97    7.9   6.0   WSW   0.50  11.0     W    6.7    8.6    6.9  1017.8  0.00  0.00   0.035   0.000   18.8    53    9.0   18.1   9.93  .0750    116    1    100.0    5 
21/02/17   4:55    8.3    8.3    8.3    97    7.8   6.0   WSW   0.50  10.0   WSW    6.7    8.5    6.9  1017.7  0.00  0.00   0.035   0.000   18.8    53    9.0   18.1   9.93  .0750    117    1    100.0    5 
21/02/17   5:00    8.2    8.3    8.2    97    7.8   4.0   WSW   0.33   9.0   WSW    7.3    8.4    7.6  1017.7  0.00  0.00   0.035   0.000   18.8    53    9.0   18.1   9.93  .0750    117    1    100.0    5 
21/02/17   5:05    8.2    8.2    8.2    97    7.7   4.0   WSW   0.33   9.0   WSW    7.2    8.4    7.4  1017.8  0.00  0.00   0.035   0.000   18.8    53    9.0   18.1   9.93  .0750    116    1    100.0    5 
21/02/17   5:10    8.1    8.2    8.1    97    7.7   4.0   WSW   0.33  10.0   WSW    7.2    8.3    7.4  1017.7  0.00  0.00   0.035   0.000   18.8    53    9.0   18.1   9.93  .0750    118    1    100.0    5 
21/02/17   5:15    8.1    8.1    8.1    97    7.6   5.0   WSW   0.42  10.0   WSW    6.7    8.3    6.9  1017.6  0.00  0.00   0.036   0.000   18.7    53    8.9   18.0   9.94  .0750    117    1    100.0    5 
21/02/17   5:20    8.1    8.1    8.1    97    7.6   5.0   WSW   0.42  10.0    SW    6.7    8.3    6.9  1017.6  0.00  0.00   0.036   0.000   18.7    53    8.9   18.0   9.94  .0750    116    1    100.0    5 
21/02/17   5:25    8.1    8.1    8.1    97    7.7   5.0   WSW   0.42  10.0   WSW    6.8    8.3    7.0  1017.5  0.00  0.00   0.035   0.000   18.7    53    8.9   18.0   9.94  .0750    117    1    100.0    5 
21/02/17   5:30    8.1    8.1    8.1    97    7.7   6.0   WSW   0.50  10.0   WSW    6.4    8.3    6.7  1017.4  0.00  0.00   0.035   0.000   18.7    53    8.9   17.9   9.94  .0750    117    1    100.0    5 
21/02/17   5:35    8.1    8.1    8.1    97    7.7   5.0   WSW   0.42  12.0     W    6.8    8.3    7.0  1017.5  0.00  0.00   0.035   0.000   18.7    53    8.9   17.9   9.94  .0750    116    1    100.0    5 
21/02/17   5:40    8.2    8.2    8.1    98    7.9   4.0   WSW   0.33  10.0   WSW    7.2    8.4    7.4  1017.5  0.00  0.00   0.035   0.000   18.7    53    8.9   17.9   9.94  .0750    116    1    100.0    5 
21/02/17   5:45    8.3    8.3    8.2    98    8.0   7.0   WSW   0.58  13.0     W    6.4    8.5    6.6  1017.5  0.00  0.00   0.035   0.000   18.7    53    8.9   17.9   9.94  .0750    117    1    100.0    5 
21/02/17   5:50    8.3    8.3    8.3    98    8.0   6.0   WSW   0.50  12.0   WSW    6.7    8.6    6.9  1017.6  0.00  0.00   0.035   0.000   18.6    53    8.8   17.9   9.94  .0750    116    1    100.0    5 
21/02/17   5:55    8.3    8.3    8.3    98    8.0   5.0     W   0.42  12.0   WNW    7.0    8.5    7.2  1017.6  0.00  0.00   0.035   0.000   18.6    53    8.8   17.8   9.94  .0751    117    1    100.0    5 
21/02/17   6:00    8.3    8.3    8.3    97    7.9   6.0     W   0.50  13.0     W    6.7    8.6    6.9  1017.6  0.00  0.00   0.035   0.000   18.6    53    8.8   17.8   9.94  .0751    117    1    100.0    5 
21/02/17   6:05    8.3    8.4    8.3    97    7.9   5.0     W   0.42  11.0     W    7.1    8.6    7.3  1017.7  0.00  0.00   0.035   0.000   18.6    53    8.8   17.8   9.94  .0751    116    1    100.0    5 
21/02/17   6:10    8.4    8.4    8.3    97    7.9   3.0     W   0.25   9.0     W    8.0    8.6    8.2  1017.7  0.00  0.00   0.035   0.000   18.5    53    8.7   17.7   9.94  .0751    117    1    100.0    5 
21/02/17   6:15    8.4    8.4    8.4    97    7.9   3.0     W   0.25   9.0   WSW    8.0    8.6    8.2  1017.7  0.00  0.00   0.035   0.000   18.5    53    8.7   17.7   9.94  .0751    118    1    100.0    5 
21/02/17   6:20    8.4    8.4    8.4    97    7.9   6.0   WSW   0.50  12.0     W    6.8    8.6    7.0  1017.8  0.00  0.00   0.035   0.000   18.4    53    8.7   17.7   9.95  .0751    117    1    100.0    5 
21/02/17   6:25    8.4    8.4    8.3    97    7.9   5.0   WSW   0.42  11.0     W    7.1    8.6    7.3  1017.7  0.00  0.00   0.035   0.000   18.4    54    9.0   17.7  10.14  .0751    116    1    100.0    5 
21/02/17   6:30    8.3    8.4    8.3    97    7.9   4.0   WSW   0.33  10.0   WSW    7.4    8.6    7.7  1017.7  0.00  0.00   0.035   0.000   18.4    54    9.0   17.7  10.14  .0751    117    1    100.0    5 
21/02/17   6:35    8.4    8.4    8.3    97    7.9   3.0     W   0.25   8.0     W    8.0    8.6    8.2  1017.8  0.00  0.00   0.035   0.000   18.4    54    8.9   17.7  10.15  .0751    117    1    100.0    5 
21/02/17   6:40    8.4    8.4    8.4    97    8.0   5.0     W   0.42  12.0   WSW    7.2    8.7    7.4  1017.8  0.00  0.00   0.034   0.000   18.4    54    8.9   17.7  10.15  .0751    117    1    100.0    5 
21/02/17   6:45    8.4    8.4    8.4    97    8.0   6.0     W   0.50  14.0   WSW    6.8    8.7    7.1  1017.9  0.00  0.00   0.034   0.000   18.4    54    8.9   17.7  10.15  .0751    117    1    100.0    5 
21/02/17   6:50    8.5    8.5    8.4    97    8.1   5.0   WSW   0.42  12.0   WSW    7.3    8.7    7.5  1017.9  0.00  0.00   0.034   0.000   18.4    54    8.9   17.7  10.15  .0751    117    1    100.0    5 
21/02/17   6:55    8.5    8.5    8.5    97    8.1   7.0     W   0.58  14.0     W    6.7    8.7    6.9  1017.9  0.00  0.00   0.034   0.000   18.4    54    8.9   17.7  10.15  .0751    116    1    100.0    5 
21/02/17   7:00    8.6    8.6    8.5    97    8.1   6.0   WSW   0.50  10.0     W    7.0    8.8    7.2  1017.9  0.00  0.00   0.034   0.000   18.4    54    8.9   17.7  10.15  .0751    117    1    100.0    5 
21/02/17   7:05    8.6    8.6    8.6    97    8.1   6.0     W   0.50  12.0     W    7.0    8.8    7.2  1017.9  0.00  0.00   0.034   0.000   18.4    54    8.9   17.7  10.15  .0751    116    1    100.0    5 
21/02/17   7:10    8.6    8.6    8.6    97    8.2   6.0   WSW   0.50  11.0     W    7.1    8.8    7.3  1017.9  0.00  0.00   0.034   0.000   18.4    54    8.9   17.7  10.15  .0751    115    1    100.0    5 
21/02/17   7:15    8.7    8.7    8.6    97    8.2   6.0   WSW   0.50  10.0   WSW    7.1    8.9    7.3  1017.9  0.00  0.00   0.034   0.000   18.4    54    8.9   17.7  10.15  .0751    116    1    100.0    5 
21/02/17   7:20    8.7    8.7    8.7    97    8.3   7.0     W   0.58  12.0     W    6.9    9.0    7.2  1017.9  0.00  0.00   0.033   0.000   18.4    54    8.9   17.7  10.15  .0751    118    1    100.0    5 
21/02/17   7:25    8.8    8.8    8.7    97    8.3   7.0     W   0.58  12.0     W    7.0    9.1    7.3  1017.7  0.00  0.00   0.033   0.000   18.4    54    8.9   17.7  10.15  .0751    116    1    100.0    5 
21/02/17   7:30    8.8    8.8    8.8    97    8.4   6.0   WSW   0.50  13.0     W    7.3    9.1    7.6  1017.9  0.00  0.00   0.033   0.000   18.4    54    8.9   17.7  10.15  .0751    117    1    100.0    5 
21/02/17   7:35    8.9    8.9    8.8    97    8.4   7.0   WSW   0.58  11.0   WSW    7.1    9.2    7.4  1017.8  0.00  0.00   0.033   0.000   18.4    54    9.0   17.7  10.14  .0751    116    1    100.0    5 
21/02/17   7:40    8.9    8.9    8.9    97    8.4   6.0   WSW   0.50  13.0     W    7.4    9.2    7.7  1017.7  0.00  0.00   0.033   0.000   18.4    54    9.0   17.7  10.14  .0751    117    1    100.0    5 
21/02/17   7:45    8.9    8.9    8.9    97    8.5   7.0   WSW   0.58  13.0   WSW    7.2    9.2    7.4  1017.8  0.00  0.00   0.033   0.000   18.4    54    9.0   17.7  10.14  .0751    117    1    100.0    5 
21/02/17   7:50    8.9    9.0    8.9    97    8.5   4.0   WSW   0.33  11.0   WSW    8.2    9.2    8.4  1017.9  0.00  0.00   0.033   0.000   18.4    54    9.0   17.7  10.14  .0751    117    1    100.0    5 
21/02/17   7:55    9.0    9.0    8.9    97    8.5   4.0   WSW   0.33  11.0   WSW    8.2    9.3    8.5  1017.9  0.00  0.00   0.032   0.000   18.5    54    9.0   17.8  10.14  .0751    117    1    100.0    5 
21/02/17   8:00    9.0    9.0    8.9    97    8.5   3.0   WSW   0.25   8.0   WSW    8.7    9.3    8.9  1017.9  0.00  0.00   0.032   0.000   18.6    54    9.1   17.8  10.13  .0751    117    1    100.0    5 
21/02/17   8:05    8.9    9.0    8.9    97    8.5   4.0   WSW   0.33   9.0     W    8.2    9.2    8.4  1017.9  0.00  0.00   0.033   0.000   18.6    54    9.1   17.8  10.13  .0751    116    1    100.0    5 
21/02/17   8:10    8.9    8.9    8.9    97    8.4   5.0   WSW   0.42   9.0     W    7.7    9.2    8.0  1017.9  0.00  0.00   0.033   0.000   18.6    54    9.1   17.9  10.13  .0751    116    1    100.0    5 
21/02/17   8:15    8.9    8.9    8.9    97    8.4   4.0   WSW   0.33   9.0   WSW    8.1    9.2    8.4  1017.9  0.00  0.00   0.033   0.000   18.6    54    9.1   17.9  10.13  .0751    116    1    100.0    5 
21/02/17   8:20    8.9    8.9    8.9    97    8.4   5.0   WSW   0.42  10.0   WSW    7.7    9.2    8.0  1017.8  0.00  0.00   0.033   0.000   18.7    54    9.2   18.0  10.13  .0750    117    1    100.0    5 
21/02/17   8:25    8.9    8.9    8.8    97    8.5   5.0   WSW   0.42  10.0   WSW    7.8    9.2    8.1  1017.9  0.00  0.00   0.033   0.000   18.7    54    9.2   18.0  10.13  .0750    118    1    100.0    5 
21/02/17   8:30    8.9    8.9    8.9    97    8.4   7.0   WSW   0.58  12.0   WSW    7.1    9.2    7.4  1017.9  0.00  0.00   0.033   0.000   18.7    54    9.2   18.1  10.12  .0750    116    1    100.0    5 
21/02/17   8:35    9.0    9.0    8.9    97    8.5   6.0   WSW   0.50  12.0   WSW    7.5    9.3    7.8  1017.9  0.00  0.00   0.032   0.000   18.7    54    9.2   18.1  10.12  .0750    115    1    100.0    5 
21/02/17   8:40    9.1    9.1    9.0    97    8.6   7.0   WSW   0.58  11.0   WSW    7.3    9.3    7.6  1017.9  0.00  0.00   0.032   0.000   18.8    55    9.5   18.2  10.23  .0750    116    1    100.0    5 
21/02/17   8:45    9.1    9.1    9.1    97    8.7   7.0   WSW   0.58  11.0   WSW    7.4    9.4    7.7  1018.0  0.00  0.00   0.032   0.000   18.8    55    9.5   18.2  10.23  .0750    117    1    100.0    5 
21/02/17   8:50    9.2    9.2    9.1    97    8.7   7.0   WSW   0.58  12.0   WSW    7.4    9.4    7.7  1018.0  0.00  0.00   0.032   0.000   18.8    55    9.6   18.2  10.23  .0750    116    1    100.0    5 
21/02/17   8:55    9.1    9.2    9.1    97    8.6   4.0   WSW   0.33   7.0   WSW    8.3    9.3    8.6  1018.0  0.00  0.00   0.032   0.000   18.9    55    9.6   18.3  10.23  .0750    117    1    100.0    5 
21/02/17   9:00    8.9    9.1    8.9    97    8.5   6.0   WSW   0.50   7.0   WSW    7.4    9.2    7.7  1017.9  0.00  0.00   0.033   0.000   18.9    55    9.6   18.3  10.23  .0750    116    1    100.0    5 
21/02/17   9:05    8.8    8.9    8.8    97    8.3   6.0    SW   0.50   8.0    SW    7.3    9.1    7.6  1018.0  0.00  0.00   0.033   0.000   18.9    55    9.6   18.3  10.23  .0750    114    1    100.0    5 
21/02/17   9:10    8.7    8.8    8.7    97    8.3   5.0    SW   0.42   7.0    SW    7.5    9.0    7.8  1018.0  0.00  0.00   0.033   0.000   18.9    55    9.7   18.3  10.23  .0749    117    1    100.0    5 
21/02/17   9:15    8.7    8.7    8.7    97    8.2   4.0    SW   0.33   7.0    SW    7.8    8.9    8.1  1017.9  0.00  0.00   0.034   0.000   18.9    55    9.7   18.3  10.23  .0749    117    1    100.0    5 
21/02/17   9:20    8.7    8.7    8.7    97    8.3   5.0   WSW   0.42   7.0   WSW    7.5    9.0    7.8  1017.9  0.00  0.00   0.033   0.000   18.9    55    9.7   18.3  10.23  .0749    116    1    100.0    5 
21/02/17   9:25    8.7    8.7    8.7    97    8.2   4.0   WSW   0.33   7.0   WSW    7.8    8.9    8.1  1017.8  0.00  0.00   0.034   0.000   19.0    55    9.8   18.4  10.23  .0749    116    1    100.0    5 
21/02/17   9:30    8.7    8.7    8.7    97    8.2   5.0   WSW   0.42   9.0   WSW    7.4    8.9    7.7  1017.8  0.00  0.00   0.034   0.000   19.0    55    9.8   18.4  10.23  .0749    117    1    100.0    5 
21/02/17   9:35    8.8    8.8    8.7    97    8.3   4.0   WSW   0.33   8.0   WSW    8.0    9.1    8.3  1017.9  0.00  0.00   0.033   0.000   19.1    55    9.8   18.5  10.22  .0749    116    1    100.0    5 
21/02/17   9:40    8.8    8.8    8.8    97    8.4   4.0   WSW   0.33  10.0   WSW    8.1    9.1    8.3  1017.9  0.00  0.00   0.033   0.000   19.1    55    9.8   18.5  10.22  .0749    116    1    100.0    5 
21/02/17   9:45    8.9    8.9    8.8    97    8.5   6.0   WSW   0.50  10.0     W    7.4    9.2    7.7  1017.9  0.00  0.00   0.033   0.000   19.1    55    9.9   18.6  10.22  .0749    114    1    100.0    5 
21/02/17   9:50    9.0    9.0    8.9    97    8.5   6.0   WSW   0.50   9.0    SW    7.5    9.3    7.8  1017.9  0.00  0.00   0.032   0.000   19.1    56   10.1   18.6  10.42  .0749    115    1    100.0    5 
21/02/17   9:55    8.9    9.1    8.9    97    8.5   5.0   WSW   0.42   8.0   WSW    7.8    9.2    8.1  1017.9  0.00  0.00   0.033   0.000   19.2    56   10.2   18.7  10.42  .0748    117    1    100.0    5 
21/02/17  10:00    8.9    8.9    8.9    97    8.4   5.0   WSW   0.42   8.0   WSW    7.7    9.2    8.0  1018.0  0.00  0.00   0.033   0.000   19.2    56   10.2   18.7  10.42  .0748    117    1    100.0    5 
21/02/17  10:05    8.8    8.9    8.8    97    8.4   5.0   WSW   0.42   8.0   WSW    7.7    9.1    7.9  1018.0  0.00  0.00   0.033   0.000   19.2    56   10.2   18.7  10.42  .0748    117    1    100.0    5 
21/02/17  10:10    8.8    8.8    8.8    97    8.4   4.0   WSW   0.33   8.0   WSW    8.1    9.1    8.3  1018.1  0.00  0.00   0.033   0.000   19.3    56   10.3   18.8  10.42  .0748    117    1    100.0    5 
21/02/17  10:15    8.9    8.9    8.8    97    8.4   3.0   WSW   0.25   7.0   WSW    8.6    9.2    8.8  1018.1  0.00  0.00   0.033   0.000   19.3    56   10.3   18.8  10.42  .0748    117    1    100.0    5 
21/02/17  10:20    8.9    8.9    8.9    97    8.5   4.0   WSW   0.33   8.0   WSW    8.2    9.2    8.4  1018.1  0.00  0.00   0.033   0.000   19.3    56   10.3   18.8  10.41  .0748    116    1    100.0    5 
21/02/17  10:25    9.1    9.1    8.9    97    8.6   3.0   WSW   0.25   9.0    SW    8.7    9.3    9.0  1018.1  0.00  0.00   0.032   0.000   19.3    56   10.3   18.8  10.41  .0748    116    1    100.0    5 
21/02/17  10:30    9.2    9.2    9.1    97    8.7   6.0   WSW   0.50  10.0   WSW    7.7    9.4    8.0  1018.1  0.00  0.00   0.032   0.000   19.4    56   10.4   18.9  10.41  .0748    117    1    100.0    5 
21/02/17  10:35    9.2    9.2    9.2    97    8.8   6.0   WSW   0.50  11.0   WSW    7.8    9.5    8.1  1018.1  0.00  0.00   0.032   0.000   19.4    56   10.4   19.0  10.41  .0748    117    1    100.0    5 
21/02/17  10:40    9.4    9.4    9.2    97    8.9   4.0   WSW   0.33  10.0   WSW    8.7    9.7    8.9  1018.0  0.00  0.00   0.031   0.000   19.4    56   10.4   18.9  10.41  .0748    117    1    100.0    5 
21/02/17  10:45    9.4    9.4    9.4    97    8.9   5.0   WSW   0.42  10.0   WSW    8.3    9.7    8.6  1018.0  0.00  0.00   0.031   0.000   19.4    56   10.4   19.0  10.41  .0748    117    1    100.0    5 
21/02/17  10:50    9.4    9.4    9.4    97    9.0   2.0   WSW   0.17   7.0   WSW    9.4    9.7    9.7  1018.0  0.00  0.00   0.031   0.000   19.5    56   10.5   19.1  10.41  .0747    116    1    100.0    5 
21/02/17  10:55    9.3    9.5    9.3    96    8.7   4.0   WSW   0.33   6.0    SW    8.6    9.6    8.8  1018.0  0.00  0.00   0.031   0.000   19.5    56   10.5   19.1  10.41  .0747    116    1    100.0    5 
21/02/17  11:00    9.1    9.3    9.1    96    8.5   3.0   WSW   0.25   6.0   WSW    8.8    9.4    9.1  1018.0  0.00  0.00   0.032   0.000   19.6    56   10.5   19.1  10.41  .0747    117    1    100.0    5 
21/02/17  11:05    9.1    9.1    9.1    97    8.7   2.0   WSW   0.17   6.0    SW    9.1    9.4    9.4  1017.9  0.00  0.00   0.032   0.000   19.6    57   10.8   19.2  10.61  .0747    117    1    100.0    5 
21/02/17  11:10    9.3    9.3    9.1    97    8.8   3.0   WSW   0.25   7.0   WSW    9.0    9.6    9.3  1017.9  0.00  0.00   0.031   0.000   19.6    56   10.6   19.2  10.40  .0747    116    1    100.0    5 
21/02/17  11:15    9.4    9.4    9.3    97    8.9   5.0   WSW   0.42  12.0   WSW    8.3    9.7    8.6  1017.9  0.00  0.00   0.031   0.000   19.6    56   10.6   19.2  10.40  .0747    117    1    100.0    5 
21/02/17  11:20    9.4    9.4    9.3    97    9.0   6.0   WSW   0.50  10.0   WSW    8.1    9.7    8.3  1017.9  0.00  0.00   0.031   0.000   19.7    56   10.6   19.2  10.40  .0747    117    1    100.0    5 
21/02/17  11:25    9.6    9.6    9.4    97    9.2   6.0   WSW   0.50  12.0   WSW    8.3    9.9    8.6  1017.7  0.00  0.00   0.030   0.000   19.7    56   10.6   19.2  10.40  .0747    117    1    100.0    5 
21/02/17  11:30    9.8    9.8    9.6    97    9.4   6.0   WSW   0.50  11.0   WSW    8.5   10.2    8.8  1017.7  0.00  0.00   0.030   0.000   19.7    58   11.2   19.3  10.75  .0746    117    1    100.0    5 
21/02/17  11:35    9.9    9.9    9.8    96    9.3   8.0   WSW   0.67  13.0   WSW    7.9   10.2    8.2  1017.6  0.00  0.00   0.029   0.000   19.8    58   11.3   19.4  10.75  .0746    118    1    100.0    5 
21/02/17  11:40    9.9    9.9    9.8    96    9.3   9.0   WSW   0.75  14.0   WSW    7.6   10.2    7.9  1017.5  0.00  0.00   0.029   0.000   19.8    57   11.1   19.5  10.60  .0746    116    1    100.0    5 
21/02/17  11:45    9.7    9.8    9.7    96    9.1  10.0   WSW   0.83  14.0   WSW    7.1   10.0    7.3  1017.6  0.00  0.00   0.030   0.000   19.9    57   11.1   19.6  10.59  .0746    117    1    100.0    5 
21/02/17  11:50    9.6    9.7    9.6    96    8.9  12.0   WSW   1.00  15.0    SW    6.3    9.8    6.6  1017.5  0.00  0.00   0.030   0.000   20.0    57   11.2   19.7  10.59  .0745    117    1    100.0    5 
21/02/17  11:55    9.6    9.7    9.6    96    9.0  11.0   WSW   0.92  17.0     W    6.7    9.9    6.9  1017.6  0.00  0.00   0.030   0.000   20.1    57   11.3   19.7  10.59  .0745    117    1    100.0    5 
21/02/17  12:00    9.6    9.6    9.6    96    9.0  10.0   WSW   0.83  16.0   WSW    6.9    9.9    7.2  1017.5  0.00  0.00   0.030   0.000   20.1    57   11.3   19.8  10.59  .0745    117    1    100.0    5 
21/02/17  12:05    9.8    9.8    9.6    96    9.2  10.0   WSW   0.83  16.0   WSW    7.1   10.1    7.4  1017.5  0.00  0.00   0.030   0.000   20.2    56   11.2   19.8  10.38  .0745    116    1    100.0    5 
21/02/17  12:10    9.7    9.8    9.7    96    9.1  11.0   WSW   0.92  16.0    SW    6.8   10.0    7.1  1017.4  0.00  0.00   0.030   0.000   20.3    56   11.2   19.8  10.38  .0745    117    1    100.0    5 
21/02/17  12:15    9.7    9.7    9.7    96    9.1  11.0   WSW   0.92  16.0   WSW    6.8   10.0    7.1  1017.3  0.00  0.00   0.030   0.000   20.4    56   11.3   19.9  10.38  .0744    116    1    100.0    5 
21/02/17  12:20    9.6    9.7    9.6    96    9.0  12.0   WSW   1.00  16.0   WSW    6.4    9.9    6.7  1017.3  0.00  0.00   0.030   0.000   20.4    56   11.3   19.9  10.38  .0744    117    1    100.0    5 
21/02/17  12:25    9.6    9.6    9.6    96    8.9  10.0   WSW   0.83  16.0   WSW    6.8    9.8    7.1  1017.3  0.00  0.00   0.030   0.000   20.5    56   11.4   20.0  10.37  .0744    117    1    100.0    5 
21/02/17  12:30    9.6    9.6    9.6    96    9.0   9.0   WSW   0.75  14.0   WSW    7.3    9.9    7.6  1017.2  0.00  0.00   0.030   0.000   20.6    56   11.5   20.1  10.37  .0744    117    1    100.0    5 
21/02/17  12:35    9.7    9.7    9.6    96    9.1  10.0   WSW   0.83  14.0   WSW    7.0    9.9    7.3  1017.1  0.00  0.00   0.030   0.000   20.6    56   11.5   20.1  10.37  .0743    117    1    100.0    5 
21/02/17  12:40    9.7    9.7    9.7    96    9.1  10.0   WSW   0.83  15.0   WSW    7.1   10.0    7.3  1017.0  0.00  0.00   0.030   0.000   20.7    56   11.6   20.1  10.37  .0743    118    1    100.0    5 
21/02/17  12:45    9.7    9.8    9.7    95    9.0  11.0   WSW   0.92  15.0   WSW    6.8   10.0    7.1  1017.0  0.00  0.00   0.030   0.000   20.7    56   11.6   20.2  10.36  .0743    116    1    100.0    5 
21/02/17  12:50    9.6    9.7    9.6    95    8.8  11.0   WSW   0.92  16.0    SW    6.7    9.9    6.9  1016.9  0.00  0.00   0.030   0.000   20.8    56   11.7   20.2  10.36  .0743    116    1    100.0    5 
21/02/17  12:55    9.7    9.7    9.6    96    9.1  12.0   WSW   1.00  16.0    SW    6.4    9.9    6.7  1016.8  0.00  0.00   0.030   0.000   20.8    56   11.7   20.2  10.36  .0742    117    1    100.0    5 
21/02/17  13:00    9.6    9.7    9.6    96    8.9  14.0   WSW   1.17  17.0   WSW    5.9    9.8    6.2  1016.8  0.00  0.00   0.030   0.000   20.8    56   11.7   20.2  10.36  .0742    117    1    100.0    5 
21/02/17  13:05    9.6    9.6    9.5    96    8.9  15.0   WSW   1.25  19.0   WSW    5.7    9.8    6.0  1016.7  0.00  0.00   0.030   0.000   20.9    56   11.8   20.3  10.36  .0742    117    1    100.0    5 
21/02/17  13:10    9.6    9.6    9.6    96    9.0  16.0   WSW   1.33  20.0   WSW    5.6    9.9    5.9  1016.6  0.00  0.00   0.030   0.000   20.9    56   11.8   20.3  10.36  .0742    116    1    100.0    5 
21/02/17  13:15    9.6    9.6    9.6    96    9.0  15.0   WSW   1.25  18.0   WSW    5.8    9.9    6.1  1016.6  0.00  0.00   0.030   0.000   21.0    56   11.9   20.4  10.35  .0742    115    1    100.0    5 
21/02/17  13:20    9.4    9.6    9.4    95    8.7  15.0   WSW   1.25  19.0   WSW    5.6    9.7    5.9  1016.4  0.00  0.00   0.031   0.000   21.1    56   11.9   20.4  10.35  .0741    117    1    100.0    5 
21/02/17  13:25    9.4    9.4    9.4    96    8.8  16.0   WSW   1.33  20.0    SW    5.4    9.7    5.7  1016.2  0.00  0.00   0.031   0.000   21.1    56   11.9   20.4  10.35  .0741    117    1    100.0    5 
21/02/17  13:30    9.5    9.6    9.4    96    8.9  17.0   WSW   1.42  20.0   WSW    5.3    9.8    5.6  1016.2  0.00  0.00   0.031   0.000   21.1    56   12.0   20.4  10.35  .0741    116    1    100.0    5 
21/02/17  13:35    9.7    9.7    9.5    96    9.1  16.0   WSW   1.33  20.0    SW    5.7   10.0    6.0  1016.2  0.00  0.00   0.030   0.000   21.1    55   11.7   20.4  10.15  .0741    117    1    100.0    5 
21/02/17  13:40    9.8    9.8    9.7    96    9.2  17.0   WSW   1.42  21.0   WSW    5.7   10.1    5.9  1016.3  0.00  0.00   0.030   0.000   21.2    56   12.0   20.5  10.35  .0741    118    1    100.0    5 
21/02/17  13:45    9.7    9.8    9.7    95    9.0  17.0   WSW   1.42  21.0   WSW    5.6   10.0    5.9  1016.2  0.00  0.00   0.030   0.000   21.2    55   11.8   20.6  10.15  .0741    115    1    100.0    5 
21/02/17  13:50    9.6    9.7    9.6    95    8.8  17.0   WSW   1.42  22.0    SW    5.4    9.8    5.7  1016.1  0.00  0.00   0.030   0.000   21.2    55   11.8   20.6  10.15  .0741    117    1    100.0    5 
21/02/17  13:55    9.5    9.6    9.5    95    8.7  18.0   WSW   1.50  22.0   WSW    5.2    9.8    5.4  1016.1  0.00  0.00   0.031   0.000   21.3    55   11.9   20.6  10.14  .0741    116    1    100.0    5 
21/02/17  14:00    9.4    9.5    9.4    95    8.7  17.0   WSW   1.42  21.0   WSW    5.3    9.7    5.6  1016.0  0.00  0.00   0.031   0.000   21.3    55   11.9   20.6  10.14  .0741    117    1    100.0    5 
21/02/17  14:05    9.4    9.4    9.4    96    8.8  17.0   WSW   1.42  22.0    SW    5.3    9.7    5.6  1016.0  0.00  0.00   0.031   0.000   21.3    55   11.9   20.7  10.14  .0740    117    1    100.0    5 
21/02/17  14:10    9.3    9.4    9.3    96    8.7  17.0   WSW   1.42  21.0   WSW    5.2    9.6    5.4  1016.0  0.00  0.00   0.031   0.000   21.3    55   11.9   20.7  10.14  .0740    117    1    100.0    5 
21/02/17  14:15    9.3    9.4    9.3    96    8.7  14.0   WSW   1.17  19.0   WSW    5.7    9.6    5.9  1016.0  0.00  0.00   0.031   0.000   21.4    55   12.0   20.7  10.14  .0740    117    1    100.0    5 
21/02/17  14:20    9.4    9.4    9.3    96    8.8  14.0   WSW   1.17  20.0   WSW    5.8    9.7    6.1  1016.0  0.00  0.00   0.031   0.000   21.4    55   12.0   20.7  10.14  .0740    117    1    100.0    5 
21/02/17  14:25    9.4    9.4    9.4    96    8.8  15.0   WSW   1.25  20.0   WSW    5.6    9.7    5.8  1016.0  0.00  0.00   0.031   0.000   21.4    55   12.0   20.7  10.14  .0740    115    1    100.0    5 
21/02/17  14:30    9.4    9.4    9.4    96    8.8  14.0   WSW   1.17  20.0   WSW    5.8    9.7    6.1  1016.0  0.00  0.00   0.031   0.000   21.4    55   12.0   20.8  10.14  .0740    115    1    100.0    5 
21/02/17  14:35    9.4    9.4    9.4    96    8.8  12.0   WSW   1.00  18.0   WSW    6.2    9.7    6.5  1016.0  0.00  0.00   0.031   0.000   21.4    55   12.0   20.8  10.14  .0740    117    1    100.0    5 
21/02/17  14:40    9.4    9.4    9.4    96    8.8  12.0   WSW   1.00  18.0   WSW    6.2    9.7    6.4  1015.9  0.00  0.00   0.031   0.000   21.4    55   12.0   20.8  10.14  .0740    117    1    100.0    5 
21/02/17  14:45    9.4    9.4    9.4    96    8.8  12.0   WSW   1.00  19.0   WSW    6.2    9.7    6.4  1015.8  0.00  0.00   0.031   0.000   21.4    55   12.0   20.8  10.14  .0740    118    1    100.0    5 
21/02/17  14:50    9.3    9.4    9.3    96    8.7  14.0   WSW   1.17  20.0   WSW    5.7    9.6    5.9  1015.9  0.00  0.00   0.031   0.000   21.4    55   12.0   20.8  10.14  .0740    116    1    100.0    5 
21/02/17  14:55    9.3    9.3    9.3    96    8.7  14.0   WSW   1.17  19.0   WSW    5.7    9.6    5.9  1015.9  0.00  0.00   0.031   0.000   21.4    55   12.0   20.8  10.14  .0740    115    1    100.0    5 
21/02/17  15:00    9.3    9.3    9.3    96    8.7  13.0   WSW   1.08  20.0   WSW    5.8    9.6    6.1  1015.8  0.00  0.00   0.031   0.000   21.4    55   12.0   20.8  10.14  .0740    116    1    100.0    5 
21/02/17  15:05    9.2    9.3    9.2    96    8.6  12.0   WSW   1.00  18.0   WSW    5.9    9.5    6.2  1015.6  0.00  0.00   0.032   0.000   21.5    55   12.1   20.9  10.14  .0740    116    1    100.0    5 
21/02/17  15:10    9.2    9.2    9.2    96    8.6  12.0   WSW   1.00  18.0    SW    5.9    9.4    6.2  1015.6  0.00  0.00   0.032   0.000   21.4    55   12.0   20.8  10.14  .0740    117    1    100.0    5 
21/02/17  15:15    9.2    9.2    9.2    96    8.6  11.0   WSW   0.92  17.0     W    6.2    9.4    6.4  1015.6  0.00  0.00   0.032   0.000   21.5    55   12.1   20.9  10.14  .0740    117    1    100.0    5 
21/02/17  15:20    9.1    9.2    9.1    96    8.5  10.0   WSW   0.83  15.0   WSW    6.3    9.4    6.6  1015.7  0.00  0.00   0.032   0.000   21.5    55   12.1   20.9  10.14  .0740    115    1    100.0    5 
21/02/17  15:25    9.1    9.1    9.1    96    8.5   9.0   WSW   0.75  17.0   WSW    6.6    9.3    6.9  1015.7  0.00  0.00   0.032   0.000   21.5    55   12.1   20.9  10.14  .0740    117    1    100.0    5 
21/02/17  15:30    9.1    9.1    9.1    96    8.5   9.0   WSW   0.75  16.0   WSW    6.6    9.3    6.9  1015.6  0.00  0.00   0.032   0.000   21.5    55   12.1   20.9  10.14  .0740    117    1    100.0    5 
21/02/17  15:35    9.0    9.1    9.0    96    8.4  12.0   WSW   1.00  17.0   WSW    5.7    9.3    5.9  1015.5  0.00  0.00   0.032   0.000   21.5    55   12.1   20.9  10.14  .0740    117    1    100.0    5 
21/02/17  15:40    9.0    9.0    9.0    96    8.4  13.0   WSW   1.08  18.0   WSW    5.4    9.3    5.7  1015.5  0.00  0.00   0.032   0.000   21.5    55   12.1   20.9  10.14  .0740    117    1    100.0    5 
21/02/17  15:45    8.9    9.0    8.9    97    8.5  14.0   WSW   1.17  20.0   WSW    5.2    9.2    5.4  1015.4  0.00  0.00   0.033   0.000   21.5    55   12.1   20.9  10.14  .0739    116    1    100.0    5 
21/02/17  15:50    8.9    8.9    8.9    96    8.3  15.0   WSW   1.25  21.0   WSW    4.9    9.1    5.2  1015.4  0.00  0.00   0.033   0.000   21.5    55   12.1   20.9  10.14  .0739    117    1    100.0    5 
21/02/17  15:55    8.8    8.9    8.8    97    8.4  15.0   WSW   1.25  20.0   WSW    4.9    9.1    5.2  1015.4  0.00  0.00   0.033   0.000   21.5    55   12.1   20.9  10.14  .0739    116    1    100.0    5 
21/02/17  16:00    8.8    8.8    8.8    97    8.4  14.0   WSW   1.17  20.0   WSW    5.1    9.1    5.3  1015.3  0.00  0.00   0.033   0.000   21.6    55   12.1   20.9  10.13  .0739    117    1    100.0    5 
21/02/17  16:05    8.8    8.8    8.8    97    8.3  16.0   WSW   1.33  21.0   WSW    4.7    9.1    4.9  1015.3  0.00  0.00   0.033   0.000   21.6    55   12.1   20.9  10.13  .0739    117    1    100.0    5 
21/02/17  16:10    8.7    8.8    8.7    97    8.3  17.0   WSW   1.42  20.0   WSW    4.4    9.0    4.7  1015.3  0.00  0.00   0.033   0.000   21.6    55   12.1   20.9  10.13  .0739    117    1    100.0    5 
21/02/17  16:15    8.7    8.8    8.7    97    8.3  16.0   WSW   1.33  20.0   WSW    4.6    9.0    4.9  1015.4  0.00  0.00   0.033   0.000   21.6    55   12.1   20.9  10.13  .0739    117    1    100.0    5 
21/02/17  16:20    8.7    8.7    8.7    97    8.3  12.0   WSW   1.00  17.0   WSW    5.4    9.0    5.7  1015.4  0.00  0.00   0.033   0.000   21.6    55   12.2   21.1  10.13  .0739    116    1    100.0    5 
21/02/17  16:25    8.7    8.7    8.7    97    8.2  12.0   WSW   1.00  17.0   WSW    5.3    8.9    5.6  1015.4  0.00  0.00   0.034   0.000   21.6    55   12.2   21.1  10.13  .0739    116    1    100.0    5 
21/02/17  16:30    8.7    8.7    8.7    97    8.2  11.0   WSW   0.92  17.0   WSW    5.6    8.9    5.8  1015.3  0.00  0.00   0.034   0.000   21.6    55   12.2   21.1  10.13  .0739    117    1    100.0    5 
21/02/17  16:35    8.7    8.7    8.7    97    8.2  11.0   WSW   0.92  15.0   WSW    5.6    8.9    5.8  1015.2  0.00  0.00   0.034   0.000   21.6    55   12.2   21.1  10.13  .0739    107    1     93.9    5 
21/02/17  16:40    8.7    8.7    8.7    97    8.2  11.0   WSW   0.92  13.0   WSW    5.6    8.9    5.8  1015.3  0.00  0.00   0.034   0.000   21.7    55   12.2   21.1  10.13  .0739    117    1    100.0    5 
21/02/17  16:45    8.7    8.7    8.6    97    8.2  10.0   WSW   0.83  15.0   WSW    5.8    8.9    6.1  1015.3  0.00  0.00   0.034   0.000   21.7    55   12.3   21.2  10.13  .0739    115    1    100.0    5 
21/02/17  16:50    8.7    8.7    8.7    97    8.2  10.0   WSW   0.83  14.0   WSW    5.8    8.9    6.1  1015.3  0.00  0.00   0.034   0.000   21.7    55   12.3   21.2  10.13  .0739    115    1    100.0    5 
21/02/17  16:55    8.6    8.7    8.6    97    8.2  10.0   WSW   0.83  14.0   WSW    5.8    8.8    6.0  1015.2  0.00  0.00   0.034   0.000   21.8    55   12.3   21.3  10.13  .0738    116    1    100.0    5 
21/02/17  17:00    8.7    8.7    8.6    97    8.2   7.0   WSW   0.58  12.0   WSW    6.8    8.9    7.1  1015.2  0.00  0.00   0.034   0.000   21.7    55   12.3   21.2  10.13  .0739    117    1    100.0    5 
21/02/17  17:05    8.7    8.7    8.7    97    8.2   7.0   WSW   0.58  12.0   WSW    6.8    8.9    7.1  1015.1  0.00  0.00   0.034   0.000   21.7    55   12.3   21.2  10.13  .0739    117    1    100.0    5 
21/02/17  17:10    8.7    8.7    8.7    97    8.2   9.0   WSW   0.75  15.0    SW    6.1    8.9    6.3  1015.0  0.00  0.00   0.034   0.000   21.7    55   12.3   21.2  10.13  .0738    115    1    100.0    5 
21/02/17  17:15    8.7    8.7    8.7    97    8.2  11.0   WSW   0.92  16.0   WSW    5.6    8.9    5.8  1015.0  0.00  0.00   0.034   0.000   21.7    55   12.3   21.2  10.13  .0738    117    1    100.0    5 
21/02/17  17:20    8.6    8.7    8.6    97    8.2  14.0   WSW   1.17  18.0   WSW    4.8    8.8    5.1  1015.1  0.00  0.00   0.034   0.000   21.7    55   12.2   21.1  10.13  .0739    117    1    100.0    5 
21/02/17  17:25    8.6    8.6    8.6    98    8.3  15.0   WSW   1.25  18.0    SW    4.6    8.9    4.9  1015.1  0.00  0.00   0.034   0.000   21.7    55   12.2   21.1  10.13  .0739    117    1    100.0    5 
21/02/17  17:30    8.6    8.6    8.6    98    8.3  14.0   WSW   1.17  18.0   WSW    4.8    8.9    5.1  1015.0  0.00  0.00   0.034   0.000   21.7    55   12.2   21.1  10.13  .0739    117    1    100.0    5 
21/02/17  17:35    8.6    8.6    8.6    98    8.3  15.0   WSW   1.25  17.0   WSW    4.6    8.9    4.9  1015.0  0.00  0.00   0.034   0.000   21.6    55   12.2   21.1  10.13  .0739    116    1    100.0    5 
21/02/17  17:40    8.6    8.6    8.6    98    8.3  14.0   WSW   1.17  17.0    SW    4.8    8.9    5.1  1015.0  0.00  0.00   0.034   0.000   21.6    55   12.2   21.1  10.13  .0739    117    1    100.0    5 
21/02/17  17:45    8.6    8.6    8.6    98    8.3  13.0   WSW   1.08  17.0    SW    5.1    8.9    5.3  1015.0  0.00  0.00   0.034   0.000   21.6    55   12.1   20.9  10.13  .0739    117    1    100.0    5 
21/02/17  17:50    8.6    8.6    8.6    98    8.3  13.0   WSW   1.08  16.0   WSW    5.1    8.9    5.3  1015.0  0.00  0.00   0.034   0.000   21.6    55   12.1   20.9  10.13  .0739    116    1    100.0    5 
21/02/17  17:55    8.6    8.6    8.6    98    8.3  12.0   WSW   1.00  14.0   WSW    5.3    8.9    5.6  1014.9  0.00  0.00   0.034   0.000   21.5    55   12.1   20.9  10.14  .0739    115    1    100.0    5 
21/02/17  18:00    8.6    8.6    8.6    98    8.3  11.0   WSW   0.92  15.0    SW    5.5    8.9    5.8  1014.9  0.00  0.00   0.034   0.000   21.5    55   12.1   20.9  10.14  .0739    118    1    100.0    5 
21/02/17  18:05    8.6    8.6    8.6    98    8.3  11.0   WSW   0.92  14.0   WSW    5.5    8.9    5.8  1014.8  0.00  0.00   0.034   0.000   21.5    55   12.1   20.9  10.14  .0739    117    1    100.0    5 
21/02/17  18:10    8.6    8.6    8.6    98    8.3  11.0   WSW   0.92  14.0   WSW    5.5    8.9    5.8  1014.8  0.00  0.00   0.034   0.000   21.5    55   12.1   20.9  10.14  .0739    116    1    100.0    5 
21/02/17  18:15    8.6    8.6    8.6    98    8.3  12.0   WSW   1.00  15.0   WSW    5.3    8.9    5.6  1014.8  0.00  0.00   0.034   0.000   21.4    55   12.0   20.8  10.14  .0739    117    1    100.0    5 
21/02/17  18:20    8.6    8.6    8.6    98    8.3  11.0    SW   0.92  14.0    SW    5.4    8.8    5.7  1014.8  0.00  0.00   0.034   0.000   21.4    55   12.0   20.8  10.14  .0739    117    1    100.0    5 
21/02/17  18:25    8.6    8.6    8.6    98    8.3  13.0   WSW   1.08  16.0    SW    5.1    8.9    5.3  1014.8  0.00  0.00   0.034   0.000   21.4    55   12.0   20.7  10.14  .0739    117    1    100.0    5 
21/02/17  18:30    8.6    8.6    8.6    98    8.3  12.0   WSW   1.00  15.0    SW    5.3    8.9    5.6  1014.8  0.00  0.00   0.034   0.000   21.4    55   12.0   20.7  10.14  .0739    116    1    100.0    5 
21/02/17  18:35    8.6    8.6    8.6    98    8.3  13.0   WSW   1.08  16.0    SW    4.9    8.8    5.2  1014.9  0.00  0.00   0.034   0.000   21.4    55   12.0   20.7  10.14  .0739    115    1    100.0    5 
21/02/17  18:40    8.6    8.6    8.6    98    8.3  14.0   WSW   1.17  17.0   WSW    4.7    8.8    5.0  1014.8  0.00  0.00   0.034   0.000   21.4    55   12.0   20.7  10.14  .0739    116    1    100.0    5 
21/02/17  18:45    8.6    8.6    8.6    98    8.3  14.0   WSW   1.17  17.0   WSW    4.8    8.9    5.1  1014.8  0.00  0.00   0.034   0.000   21.4    55   12.0   20.7  10.14  .0739    116    1    100.0    5 
21/02/17  18:50    8.6    8.6    8.6    98    8.3  13.0   WSW   1.08  17.0   WSW    4.9    8.8    5.2  1014.8  0.00  0.00   0.034   0.000   21.4    55   12.0   20.7  10.14  .0739    116    1    100.0    5 
21/02/17  18:55    8.6    8.6    8.6    98    8.3  12.0   WSW   1.00  15.0   WSW    5.3    8.9    5.6  1014.8  0.00  0.00   0.034   0.000   21.3    55   11.9   20.7  10.14  .0740    117    1    100.0    5 
21/02/17  19:00    8.6    8.6    8.6    98    8.3  13.0   WSW   1.08  16.0   WSW    4.9    8.8    5.2  1014.8  0.00  0.00   0.034   0.000   21.3    55   11.9   20.7  10.14  .0740    118    1    100.0    5 
21/02/17  19:05    8.7    8.7    8.6    98    8.4  14.0   WSW   1.17  17.0   WSW    4.9    8.9    5.2  1014.7  0.00  0.00   0.034   0.000   21.3    55   11.9   20.7  10.14  .0739    116    1    100.0    5 
21/02/17  19:10    8.7    8.7    8.7    98    8.4  14.0   WSW   1.17  18.0    SW    4.9    8.9    5.2  1014.7  0.00  0.00   0.034   0.000   21.3    55   11.9   20.7  10.14  .0739    117    1    100.0    5 
21/02/17  19:15    8.7    8.7    8.7    98    8.4  14.0   WSW   1.17  17.0   WSW    4.9    9.0    5.2  1014.8  0.00  0.00   0.033   0.000   21.3    55   11.9   20.7  10.14  .0740    117    1    100.0    5 
21/02/17  19:20    8.7    8.7    8.7    98    8.4  13.0   WSW   1.08  17.0   WSW    5.1    8.9    5.4  1014.8  0.00  0.00   0.034   0.000   21.3    55   11.9   20.6  10.14  .0740    116    1    100.0    5 
21/02/17  19:25    8.7    8.7    8.7    98    8.4  12.0   WSW   1.00  15.0   WSW    5.3    8.9    5.6  1014.7  0.00  0.00   0.034   0.000   21.3    55   11.9   20.6  10.14  .0740    117    1    100.0    5 
21/02/17  19:30    8.6    8.7    8.6    98    8.3  12.0   WSW   1.00  14.0   WSW    5.3    8.9    5.6  1014.8  0.00  0.00   0.034   0.000   21.3    55   11.9   20.6  10.14  .0740    116    1    100.0    5 
21/02/17  19:35    8.7    8.7    8.6    98    8.4  12.0   WSW   1.00  15.0   WSW    5.3    8.9    5.6  1014.7  0.00  0.00   0.034   0.000   21.2    55   11.8   20.6  10.15  .0740    116    1    100.0    5 
21/02/17  19:40    8.8    8.8    8.7    98    8.5  12.0   WSW   1.00  20.0   WSW    5.4    9.1    5.7  1014.7  0.00  0.00   0.033   0.000   21.2    55   11.8   20.6  10.15  .0740    117    1    100.0    5 
21/02/17  19:45    8.8    8.8    8.8    98    8.5  14.0   WSW   1.17  18.0   WSW    5.1    9.1    5.3  1014.6  0.00  0.00   0.033   0.000   21.2    55   11.8   20.6  10.15  .0740    117    1    100.0    5 
21/02/17  19:50    8.8    8.8    8.8    98    8.5  14.0   WSW   1.17  17.0   WSW    5.1    9.1    5.3  1014.7  0.00  0.00   0.033   0.000   21.2    54   11.5   20.4   9.95  .0740    116    1    100.0    5 
21/02/17  19:55    8.8    8.8    8.8    98    8.5  12.0   WSW   1.00  16.0   WSW    5.4    9.1    5.7  1014.7  0.00  0.00   0.033   0.000   21.2    54   11.5   20.4   9.95  .0740    117    1    100.0    5 
21/02/17  20:00    8.7    8.8    8.7    98    8.4  14.0   WSW   1.17  17.0   WSW    4.9    9.0    5.2  1014.5  0.00  0.00   0.033   0.000   21.2    54   11.5   20.4   9.95  .0740    117    1    100.0    5 
21/02/17  20:05    8.8    8.8    8.7    98    8.5  15.0   WSW   1.25  19.0   WSW    4.8    9.1    5.1  1014.4  0.00  0.00   0.033   0.000   21.2    54   11.5   20.4   9.95  .0740    117    1    100.0    5 
21/02/17  20:10    8.7    8.8    8.7    98    8.4  16.0   WSW   1.33  19.0   WSW    4.6    9.0    4.9  1014.4  0.00  0.00   0.033   0.000   21.1    54   11.4   20.3   9.95  .0740    117    1    100.0    5 
21/02/17  20:15    8.8    8.8    8.7    98    8.5  14.0   WSW   1.17  18.0   WSW    5.0    9.1    5.3  1014.3  0.00  0.00   0.033   0.000   21.1    54   11.4   20.3   9.95  .0740    117    1    100.0    5 
21/02/17  20:20    8.8    8.8    8.8    98    8.5  15.0   WSW   1.25  19.0   WSW    4.8    9.1    5.1  1014.3  0.00  0.00   0.033   0.000   21.1    54   11.4   20.3   9.95  .0740    117    1    100.0    5 
21/02/17  20:25    8.7    8.8    8.7    98    8.4  12.0   WSW   1.00  17.0   WSW    5.4    9.0    5.7  1014.2  0.00  0.00   0.033   0.000   21.1    54   11.4   20.3   9.95  .0740    116    1    100.0    5 
21/02/17  20:30    8.7    8.7    8.7    98    8.4  11.0   WSW   0.92  16.0   WSW    5.6    8.9    5.8  1014.2  0.00  0.00   0.034   0.000   21.1    54   11.4   20.3   9.95  .0740    117    1    100.0    5 
21/02/17  20:35    8.7    8.7    8.7    98    8.4  11.0   WSW   0.92  16.0   WSW    5.6    8.9    5.8  1014.1  0.00  0.00   0.034   0.000   21.1    54   11.4   20.3   9.95  .0740    117    1    100.0    5 
21/02/17  20:40    8.7    8.7    8.7    98    8.4  11.0   WSW   0.92  17.0   WSW    5.6    8.9    5.8  1014.2  0.00  0.00   0.034   0.000   21.1    54   11.4   20.3   9.95  .0740    117    1    100.0    5 
21/02/17  20:45    8.6    8.7    8.6    98    8.3  11.0   WSW   0.92  17.0   WSW    5.5    8.9    5.8  1014.1  0.00  0.00   0.034   0.000   21.1    54   11.4   20.3   9.95  .0740    117    1    100.0    5 
21/02/17  20:50    8.7    8.7    8.6    98    8.4  13.0   WSW   1.08  19.0   WSW    5.1    8.9    5.4  1014.0  0.00  0.00   0.034   0.000   21.1    54   11.4   20.3   9.95  .0740    117    1    100.0    5 
21/02/17  20:55    8.7    8.7    8.7    97    8.3  13.0   WSW   1.08  19.0     W    5.2    9.0    5.4  1014.0  0.00  0.00   0.033   0.000   21.0    54   11.3   20.3   9.96  .0740    115    1    100.0    5 
21/02/17  21:00    8.8    8.8    8.7    97    8.3  15.0   WSW   1.25  21.0   WSW    4.8    9.1    5.1  1014.0  0.00  0.00   0.033   0.000   21.0    54   11.3   20.3   9.96  .0740    116    1    100.0    5 
21/02/17  21:05    8.8    8.8    8.8    97    8.4  14.0   WSW   1.17  20.0   WSW    5.1    9.1    5.3  1014.0  0.00  0.00   0.033   0.000   21.0    54   11.3   20.3   9.96  .0740    117    1    100.0    5 
21/02/17  21:10    8.8    8.8    8.8    97    8.4  13.0   WSW   1.08  18.0   WSW    5.3    9.1    5.6  1014.0  0.00  0.00   0.033   0.000   21.0    54   11.3   20.3   9.96  .0740    118    1    100.0    5 
21/02/17  21:15    8.8    8.8    8.8    97    8.3  13.0   WSW   1.08  18.0   WSW    5.2    9.1    5.5  1013.9  0.00  0.00   0.033   0.000   20.9    54   11.3   20.2   9.96  .0740    115    1    100.0    5 
21/02/17  21:20    8.7    8.8    8.7    97    8.2  15.0   WSW   1.25  18.0   WSW    4.7    8.9    4.9  1013.9  0.00  0.00   0.034   0.000   20.9    54   11.3   20.2   9.96  .0740    115    1    100.0    5 
21/02/17  21:25    8.7    8.7    8.7    97    8.2  16.0   WSW   1.33  21.0   WSW    4.6    8.9    4.8  1013.8  0.00  0.00   0.034   0.000   20.9    54   11.3   20.2   9.96  .0740    117    1    100.0    5 
21/02/17  21:30    8.8    8.8    8.7    97    8.3  18.0   WSW   1.50  24.0    SW    4.4    9.1    4.7  1013.7  0.00  0.00   0.033   0.000   20.9    54   11.3   20.2   9.96  .0740    117    1    100.0    5 
21/02/17  21:35    8.8    8.8    8.8    97    8.4  20.0   WSW   1.67  25.0   WSW    4.2    9.1    4.4  1013.8  0.00  0.00   0.033   0.000   20.9    54   11.3   20.2   9.96  .0740    116    1    100.0    5 
21/02/17  21:40    8.8    8.8    8.8    97    8.4  19.0   WSW   1.58  23.0   WSW    4.3    9.1    4.6  1013.7  0.00  0.00   0.033   0.000   20.9    54   11.2   20.2   9.97  .0740    117    1    100.0    5 
21/02/17  21:45    8.8    8.8    8.8    97    8.4  16.0   WSW   1.33  22.0    SW    4.7    9.1    5.0  1013.8  0.00  0.00   0.033   0.000   20.9    54   11.2   20.2   9.97  .0740    116    1    100.0    5 
21/02/17  21:50    8.8    8.8    8.8    97    8.4  17.0   WSW   1.42  21.0    SW    4.6    9.1    4.8  1013.7  0.00  0.00   0.033   0.000   20.9    54   11.2   20.2   9.97  .0740    117    1    100.0    5 
21/02/17  21:55    8.8    8.8    8.8    97    8.4  17.0   WSW   1.42  22.0   WSW    4.6    9.1    4.8  1013.7  0.00  0.00   0.033   0.000   20.8    54   11.2   20.2   9.97  .0740    117    1    100.0    5 
21/02/17  22:00    8.9    8.9    8.8    97    8.4  16.0   WSW   1.33  20.0   WSW    4.8    9.2    5.1  1013.5  0.00  0.00   0.033   0.000   20.8    54   11.2   20.2   9.97  .0740    117    1    100.0    5 
21/02/17  22:05    8.9    8.9    8.8    97    8.5  16.0   WSW   1.33  23.0   WSW    4.8    9.2    5.1  1013.4  0.00  0.00   0.033   0.000   20.8    54   11.2   20.2   9.97  .0740    115    1    100.0    5 
21/02/17  22:10    8.9    8.9    8.9    97    8.5  16.0   WSW   1.33  23.0   WSW    4.8    9.2    5.1  1013.5  0.00  0.00   0.033   0.000   20.8    54   11.1   20.1   9.97  .0741    115    1    100.0    5 
21/02/17  22:15    8.9    8.9    8.9    97    8.4  15.0   WSW   1.25  20.0   WSW    4.9    9.2    5.2  1013.4  0.00  0.00   0.033   0.000   20.8    54   11.1   20.1   9.97  .0740    116    1    100.0    5 
21/02/17  22:20    8.9    8.9    8.9    97    8.4  13.0   WSW   1.08  19.0   WSW    5.3    9.2    5.6  1013.3  0.00  0.00   0.033   0.000   20.8    54   11.1   20.1   9.97  .0740    117    1    100.0    5 
21/02/17  22:25    8.9    8.9    8.9    98    8.6  15.0   WSW   1.25  21.0   WSW    5.0    9.2    5.3  1013.3  0.00  0.00   0.033   0.000   20.8    54   11.1   20.1   9.97  .0740    116    1    100.0    5 
21/02/17  22:30    8.9    8.9    8.9    98    8.6  15.0   WSW   1.25  20.0   WSW    5.0    9.2    5.3  1013.3  0.00  0.00   0.033   0.000   20.7    54   11.1   20.1   9.98  .0741    117    1    100.0    5 
21/02/17  22:35    8.9    8.9    8.9    98    8.6  12.0   WSW   1.00  18.0   WSW    5.6    9.2    5.8  1013.3  0.00  0.00   0.033   0.000   20.7    54   11.1   20.1   9.98  .0741    117    1    100.0    5 
21/02/17  22:40    8.9    8.9    8.9    98    8.6  14.0   WSW   1.17  19.0   WSW    5.2    9.2    5.4  1013.3  0.00  0.00   0.033   0.000   20.7    54   11.0   20.1   9.98  .0741    116    1    100.0    5 
21/02/17  22:45    8.9    8.9    8.9    98    8.6  14.0   WSW   1.17  19.0   WSW    5.1    9.2    5.4  1013.2  0.00  0.00   0.033   0.000   20.7    54   11.0   20.1   9.98  .0741    116    1    100.0    5 
21/02/17  22:50    8.8    8.9    8.8    98    8.5  15.0   WSW   1.25  20.0   WSW    4.9    9.1    5.2  1013.1  0.00  0.00   0.033   0.000   20.6    54   11.0   20.0   9.99  .0741    116    1    100.0    5 
21/02/17  22:55    8.8    8.9    8.8    97    8.4  13.0   WSW   1.08  19.0   WSW    5.3    9.1    5.6  1013.2  0.00  0.00   0.033   0.000   20.6    54   11.0   20.0   9.99  .0741    116    1    100.0    5 
21/02/17  23:00    8.8    8.8    8.8    97    8.4  12.0   WSW   1.00  16.0   WSW    5.5    9.1    5.8  1013.1  0.00  0.00   0.033   0.000   20.6    54   11.0   20.0   9.99  .0741    116    1    100.0    5 
21/02/17  23:05    8.8    8.8    8.8    97    8.3  11.0   WSW   0.92  16.0   WSW    5.7    9.1    6.0  1013.0  0.00  0.00   0.033   0.000   20.6    54   10.9   19.9   9.99  .0741    116    1    100.0    5 
21/02/17  23:10    8.7    8.8    8.7    97    8.3  12.0   WSW   1.00  16.0   WSW    5.4    9.0    5.7  1012.9  0.00  0.00   0.033   0.000   20.6    54   10.9   19.9   9.99  .0741    117    1    100.0    5 
21/02/17  23:15    8.7    8.7    8.7    97    8.3  10.0   WSW   0.83  15.0    SW    5.9    9.0    6.2  1012.9  0.00  0.00   0.033   0.000   20.6    53   10.6   19.9   9.87  .0741    118    1    100.0    5 
21/02/17  23:20    8.7    8.7    8.7    97    8.3   3.0   WSW   0.25  11.0   WSW    8.4    9.0    8.7  1012.9  0.00  0.00   0.033   0.000   20.5    54   10.9   19.9   9.99  .0741    115    1    100.0    5 
21/02/17  23:25    8.8    8.8    8.7    97    8.3   0.0   ---   0.00   0.0   ---    8.8    9.1    9.1  1012.8  0.00  0.00   0.033   0.000   20.5    54   10.9   19.9   9.99  .0741    117    1    100.0    5 
21/02/17  23:30    8.8    8.8    8.8    97    8.3   0.0   ---   0.00   0.0   ---    8.8    9.1    9.1  1012.8  0.00  0.00   0.033   0.000   20.4    53   10.5   19.8   9.87  .0741    117    1    100.0    5 
21/02/17  23:35    8.8    8.8    8.8    97    8.3   0.0   WSW   0.00   1.0   WSW    8.8    9.1    9.1  1012.7  0.00  0.00   0.033   0.000   20.4    53   10.5   19.8   9.87  .0741    117    1    100.0    5 
21/02/17  23:40    8.8    8.8    8.8    97    8.3   0.0   ---   0.00   0.0   ---    8.8    9.1    9.1  1012.6  0.00  0.00   0.033   0.000   20.4    53   10.5   19.8   9.88  .0741    117    1    100.0    5 
21/02/17  23:45    8.8    8.8    8.8    97    8.4   0.0   WSW   0.00   2.0   WSW    8.8    9.1    9.1  1012.6  0.00  0.00   0.033   0.000   20.4    53   10.5   19.8   9.88  .0741    117    1    100.0    5 
21/02/17  23:50    8.8    8.8    8.8    97    8.3   0.0   ---   0.00   0.0   ---    8.8    9.1    9.1  1012.4  0.00  0.00   0.033   0.000   20.4    53   10.5   19.8   9.88  .0741    117    1    100.0    5 
21/02/17  23:55    8.8    8.8    8.8    97    8.3   0.0   ---   0.00   0.0   ---    8.8    9.1    9.1  1012.4  0.00  0.00   0.033   0.000   20.3    53   10.4   19.7   9.88  .0741    115    1    100.0    5 
22/02/17  00:00    8.8    8.8    8.8    97    8.3   0.0   ---   0.00   0.0   ---    8.8    9.1    9.1  1012.4  0.00  0.00   0.033   0.000   20.3    53   10.4   19.7   9.88  .0741    116    1    100.0    5 
22/02/17   0:05    8.8    8.8    8.8    97    8.4   0.0   ---   0.00   0.0   ---    8.8    9.1    9.1  1012.3  0.00  0.00   0.033   0.000   20.3    53   10.4   19.7   9.88  .0741    114    1    100.0    5 
22/02/17   0:10    8.8    8.8    8.8    97    8.4   0.0    SW   0.00   1.0    SW    8.8    9.1    9.1  1012.3  0.00  0.00   0.033   0.000   20.3    53   10.4   19.7   9.88  .0741    116    1    100.0    5 
22/02/17   0:15    8.8    8.8    8.8    97    8.4   0.0   ---   0.00   0.0   ---    8.8    9.1    9.1  1012.3  0.00  0.00   0.033   0.000   20.2    53   10.3   19.6   9.88  .0742    117    1    100.0    5 
22/02/17   0:20    8.8    8.8    8.8    97    8.4   0.0   WSW   0.00   1.0   WSW    8.8    9.1    9.1  1012.2  0.00  0.00   0.033   0.000   20.2    53   10.3   19.6   9.88  .0741    117    1    100.0    5 
22/02/17   0:25    8.8    8.8    8.8    97    8.4   0.0   ---   0.00   0.0   ---    8.8    9.1    9.1  1012.1  0.00  0.00   0.033   0.000   20.2    53   10.3   19.6   9.88  .0741    116    1    100.0    5 
22/02/17   0:30    8.8    8.8    8.8    97    8.4   0.0   WSW   0.00   1.0   WSW    8.8    9.1    9.1  1012.1  0.00  0.00   0.033   0.000   20.2    53   10.3   19.6   9.88  .0742    117    1    100.0    5 
22/02/17   0:35    8.8    8.8    8.8    97    8.4   0.0   WSW   0.00   2.0   WSW    8.8    9.1    9.1  1012.0  0.00  0.00   0.033   0.000   20.2    53   10.3   19.6   9.88  .0741    117    1    100.0    5 
22/02/17   0:40    8.9    8.9    8.8    97    8.4   0.0   WSW   0.00   1.0   WSW    8.9    9.2    9.2  1012.0  0.00  0.00   0.033   0.000   20.1    53   10.2   19.6   9.89  .0742    115    1    100.0    5 
22/02/17   0:45    8.9    8.9    8.9    97    8.5   0.0   ---   0.00   0.0   ---    8.9    9.2    9.2  1012.1  0.00  0.00   0.033   0.000   20.1    53   10.2   19.6   9.89  .0742    118    1    100.0    5 
22/02/17   0:50    8.9    8.9    8.9    97    8.5   0.0   WSW   0.00   1.0   WSW    8.9    9.2    9.2  1012.1  0.00  0.00   0.033   0.000   20.1    53   10.2   19.6   9.89  .0742    116    1    100.0    5 
22/02/17   0:55    9.0    9.0    8.9    97    8.5   0.0   ---   0.00   0.0   ---    9.0    9.3    9.3  1012.0  0.00  0.00   0.032   0.000   20.1    53   10.2   19.5   9.89  .0742    116    1    100.0    5 
22/02/17   1:00    9.0    9.0    9.0    96    8.4   0.0     W   0.00   1.0     W    9.0    9.3    9.3  1012.0  0.00  0.00   0.032   0.000   20.0    53   10.1   19.4   9.89  .0742    116    1    100.0    5 
22/02/17   1:05    9.0    9.1    9.0    96    8.4   3.0   WSW   0.25  20.0   WSW    8.7    9.3    8.9  1011.9  0.00  0.00   0.032   0.000   20.0    53   10.1   19.4   9.89  .0742    117    1    100.0    5 
22/02/17   1:10    9.1    9.1    9.0    96    8.5  12.0   WSW   1.00  20.0   WSW    5.8    9.3    6.1  1011.8  0.00  0.00   0.032   0.000   20.0    53   10.1   19.4   9.89  .0742    117    1    100.0    5 
22/02/17   1:15    9.1    9.1    9.1    96    8.5  14.0   WSW   1.17  22.0   WSW    5.3    9.3    5.6  1011.8  0.00  0.00   0.032   0.000   19.9    53   10.1   19.4   9.89  .0742    116    1    100.0    5 
22/02/17   1:20    9.1    9.1    9.1    96    8.5  13.0   WSW   1.08  22.0   WSW    5.5    9.3    5.8  1011.8  0.00  0.00   0.032   0.000   19.9    53   10.1   19.4   9.89  .0742    115    1    100.0    5 
22/02/17   1:25    9.1    9.1    9.1    96    8.5  13.0   WSW   1.08  21.0    SW    5.6    9.4    5.8  1011.9  0.00  0.00   0.032   0.000   19.9    53   10.0   19.3   9.89  .0742    116    1    100.0    5 
22/02/17   1:30    9.1    9.1    9.1    96    8.5  14.0   WSW   1.17  21.0   WSW    5.4    9.4    5.7  1011.9  0.00  0.00   0.032   0.000   19.9    53   10.0   19.3   9.89  .0742    117    1    100.0    5 
22/02/17   1:35    9.1    9.1    9.1    96    8.5  15.0   WSW   1.25  25.0   WSW    5.2    9.4    5.5  1011.9  0.00  0.00   0.032   0.000   19.8    53   10.0   19.3   9.90  .0742    117    1    100.0    5 
22/02/17   1:40    9.2    9.2    9.1    96    8.6  14.0   WSW   1.17  21.0   WSW    5.4    9.4    5.7  1011.9  0.00  0.00   0.032   0.000   19.9    53   10.0   19.3   9.89  .0742    113    1     99.1    5 
22/02/17   1:45    9.1    9.2    9.1    96    8.5  15.0   WSW   1.25  20.0   WSW    5.2    9.4    5.5  1011.9  0.00  0.00   0.032   0.000   19.8    53   10.0   19.3   9.90  .0742    117    1    100.0    5 
22/02/17   1:50    9.2    9.2    9.1    96    8.6  14.0   WSW   1.17  22.0   WSW    5.4    9.4    5.7  1011.9  0.00  0.00   0.032   0.000   19.8    53    9.9   19.2   9.90  .0743    116    1    100.0    5 
22/02/17   1:55    9.2    9.2    9.2    96    8.6  16.0   WSW   1.33  23.0   WSW    5.1    9.4    5.4  1011.9  0.00  0.00   0.032   0.000   19.8    53    9.9   19.2   9.90  .0743    116    1    100.0    5 
22/02/17   2:00    9.2    9.2    9.2    96    8.6  15.0   WSW   1.25  22.0    SW    5.3    9.4    5.6  1011.8  0.00  0.00   0.032   0.000   19.7    53    9.9   19.1   9.90  .0743    117    1    100.0    5 
22/02/17   2:05    9.2    9.2    9.2    96    8.6  15.0   WSW   1.25  21.0   WSW    5.3    9.4    5.6  1011.9  0.00  0.00   0.032   0.000   19.7    53    9.9   19.1   9.90  .0743    117    1    100.0    5 
22/02/17   2:10    9.2    9.2    9.2    96    8.6  12.0   WSW   1.00  22.0    SW    5.9    9.4    6.2  1011.9  0.00  0.00   0.032   0.000   19.7    53    9.9   19.1   9.90  .0743    117    1    100.0    5 
22/02/17   2:15    9.2    9.2    9.2    95    8.4  11.0   WSW   0.92  19.0     W    6.2    9.4    6.4  1011.9  0.00  0.00   0.032   0.000   19.7    53    9.8   19.1   9.90  .0743    116    1    100.0    5 
22/02/17   2:20    9.1    9.2    9.1    95    8.4  12.0   WSW   1.00  19.0     W    5.8    9.3    6.1  1011.9  0.00  0.00   0.032   0.000   19.7    53    9.8   19.1   9.90  .0743    115    1    100.0    5 
22/02/17   2:25    9.1    9.1    9.1    96    8.5  12.0   WSW   1.00  18.0   WSW    5.8    9.4    6.1  1011.8  0.00  0.00   0.032   0.000   19.6    53    9.8   19.0   9.90  .0743    117    1    100.0    5 
22/02/17   2:30    9.1    9.1    9.1    95    8.4  12.0   WSW   1.00  19.0   WSW    5.8    9.3    6.1  1011.7  0.00  0.00   0.032   0.000   19.6    53    9.8   19.0   9.90  .0743    117    1    100.0    5 
22/02/17   2:35    9.1    9.1    9.1    95    8.4  13.0   WSW   1.08  20.0   WSW    5.6    9.3    5.8  1011.6  0.00  0.00   0.032   0.000   19.6    53    9.8   19.0   9.90  .0743    116    1    100.0    5 
22/02/17   2:40    9.1    9.2    9.1    95    8.4  12.0   WSW   1.00  18.0   WSW    5.8    9.3    6.1  1011.7  0.00  0.00   0.032   0.000   19.6    53    9.7   18.9   9.91  .0743    117    1    100.0    5 
22/02/17   2:45    9.2    9.2    9.1    95    8.4  13.0   WSW   1.08  19.0   WSW    5.7    9.4    5.9  1011.4  0.00  0.00   0.032   0.000   19.5    53    9.7   18.9   9.91  .0743    116    1    100.0    5 
22/02/17   2:50    9.1    9.2    9.1    95    8.4  13.0   WSW   1.08  21.0   WSW    5.6    9.3    5.8  1011.3  0.00  0.00   0.032   0.000   19.5    53    9.7   18.9   9.91  .0743    117    1    100.0    5 
22/02/17   2:55    9.1    9.1    9.1    95    8.3  11.0   WSW   0.92  19.0    SW    6.0    9.3    6.2  1011.3  0.00  0.00   0.032   0.000   19.5    53    9.7   18.9   9.91  .0743    117    1    100.0    5 
22/02/17   3:00    9.0    9.1    9.0    95    8.2  10.0   WSW   0.83  16.0   WSW    6.2    9.2    6.4  1011.3  0.00  0.00   0.032   0.000   19.4    53    9.6   18.8   9.91  .0743    116    1    100.0    5 
22/02/17   3:05    9.0    9.1    9.0    95    8.2   8.0   WSW   0.67  15.0   WSW    6.8    9.2    7.1  1011.2  0.00  0.00   0.032   0.000   19.4    53    9.6   18.8   9.91  .0743    116    1    100.0    5 
22/02/17   3:10    9.0    9.0    8.9    95    8.2  10.0   WSW   0.83  17.0   WSW    6.2    9.2    6.4  1011.3  0.00  0.00   0.032   0.000   19.4    53    9.6   18.8   9.91  .0743    115    1    100.0    5 
22/02/17   3:15    8.9    9.0    8.9    95    8.2  10.0   WSW   0.83  17.0   WSW    6.2    9.2    6.4  1011.2  0.00  0.00   0.033   0.000   19.4    53    9.6   18.8   9.91  .0743    116    1    100.0    5 
22/02/17   3:20    8.9    8.9    8.9    95    8.2  12.0   WSW   1.00  19.0   WSW    5.6    9.2    5.8  1011.2  0.00  0.00   0.033   0.000   19.4    53    9.6   18.8   9.91  .0743    116    1    100.0    5 
22/02/17   3:25    8.9    8.9    8.9    95    8.1  13.0   WSW   1.08  20.0   WSW    5.3    9.1    5.6  1011.1  0.00  0.00   0.033   0.000   19.3    53    9.5   18.7   9.91  .0743    116    1    100.0    5 
22/02/17   3:30    8.9    8.9    8.9    95    8.1  14.0   WSW   1.17  20.0   WSW    5.1    9.1    5.3  1011.1  0.00  0.00   0.033   0.000   19.3    53    9.5   18.7   9.91  .0743    114    1    100.0    5 
22/02/17   3:35    8.9    8.9    8.9    95    8.1  13.0   WSW   1.08  20.0    SW    5.3    9.1    5.6  1011.1  0.00  0.00   0.033   0.000   19.3    53    9.5   18.7   9.91  .0743    117    1    100.0    5 
22/02/17   3:40    8.8    8.9    8.8    95    8.1  15.0   WSW   1.25  22.0   WSW    4.9    9.1    5.1  1011.1  0.00  0.00   0.033   0.000   19.3    53    9.5   18.6   9.92  .0744    116    1    100.0    5 
22/02/17   3:45    8.8    8.9    8.8    95    8.1  14.0   WSW   1.17  20.0   WSW    5.1    9.1    5.3  1011.2  0.00  0.00   0.033   0.000   19.3    53    9.5   18.6   9.92  .0744    117    1    100.0    5 
22/02/17   3:50    8.8    8.8    8.8    95    8.1  12.0   WSW   1.00  19.0   WSW    5.5    9.1    5.7  1011.3  0.00  0.00   0.033   0.000   19.3    53    9.5   18.6   9.92  .0744    117    1    100.0    5 
22/02/17   3:55    8.8    8.8    8.8    95    8.1  11.0   WSW   0.92  17.0   WSW    5.8    9.1    6.0  1011.2  0.00  0.00   0.033   0.000   19.2    53    9.4   18.6   9.92  .0744    118    1    100.0    5 
22/02/17   4:00    8.8    8.8    8.8    95    8.1  13.0   WSW   1.08  19.0    SW    5.3    9.1    5.5  1011.1  0.00  0.00   0.033   0.000   19.2    53    9.4   18.6   9.92  .0744    115    1    100.0    5 
22/02/17   4:05    8.8    8.8    8.8    95    8.1  15.0   WSW   1.25  21.0   WSW    4.9    9.1    5.1  1010.9  0.00  0.00   0.033   0.000   19.2    53    9.4   18.5   9.92  .0744    117    1    100.0    5 
22/02/17   4:10    8.8    8.8    8.8    95    8.0  15.0   WSW   1.25  21.0   WSW    4.8    9.0    5.1  1010.9  0.00  0.00   0.033   0.000   19.2    53    9.4   18.5   9.92  .0744    117    1    100.0    5 
22/02/17   4:15    8.8    8.8    8.8    95    8.0  13.0   WSW   1.08  20.0   WSW    5.2    9.0    5.4  1011.0  0.00  0.00   0.033   0.000   19.1    53    9.3   18.4   9.92  .0744    117    1    100.0    5 
22/02/17   4:20    8.8    8.8    8.8    95    8.0  13.0   WSW   1.08  21.0   WSW    5.2    9.0    5.4  1011.0  0.00  0.00   0.033   0.000   19.1    53    9.3   18.4   9.92  .0744    117    1    100.0    5 
22/02/17   4:25    8.8    8.8    8.8    95    8.0  13.0   WSW   1.08  20.0   WSW    5.2    9.0    5.4  1010.9  0.00  0.00   0.033   0.000   19.1    53    9.3   18.4   9.92  .0744    117    1    100.0    5 
22/02/17   4:30    8.8    8.8    8.8    95    8.1  13.0   WSW   1.08  20.0   WSW    5.3    9.1    5.5  1010.9  0.00  0.00   0.033   0.000   19.1    53    9.3   18.4   9.92  .0744    117    1    100.0    5 
22/02/17   4:35    8.9    8.9    8.8    95    8.2  14.0   WSW   1.17  19.0   WSW    5.2    9.2    5.4  1010.9  0.00  0.00   0.033   0.000   19.1    53    9.3   18.4   9.92  .0744    117    1    100.0    5 
22/02/17   4:40    9.0    9.0    8.9    95    8.2  15.0   WSW   1.25  23.0   WSW    5.1    9.2    5.3  1010.9  0.00  0.00   0.032   0.000   19.0    53    9.2   18.3   9.93  .0744    117    1    100.0    5 
22/02/17   4:45    9.1    9.1    9.0    95    8.3  14.0   WSW   1.17  21.0   WSW    5.3    9.3    5.6  1010.9  0.00  0.00   0.032   0.000   19.0    53    9.2   18.3   9.93  .0744    117    1    100.0    5 
22/02/17   4:50    9.2    9.2    9.1    95    8.4  13.0   WSW   1.08  21.0     W    5.7    9.4    5.9  1010.9  0.00  0.00   0.032   0.000   19.0    53    9.2   18.3   9.93  .0744    117    1    100.0    5 
22/02/17   4:55    9.2    9.2    9.2    95    8.5  13.0   WSW   1.08  21.0   WSW    5.7    9.5    6.0  1010.9  0.00  0.00   0.032   0.000   18.9    53    9.1   18.2   9.93  .0744    117    1    100.0    5 
22/02/17   5:00    9.2    9.2    9.2    94    8.3  14.0   WSW   1.17  21.0   WSW    5.4    9.4    5.7  1010.8  0.00  0.00   0.032   0.000   18.9    53    9.1   18.2   9.93  .0744    118    1    100.0    5 
22/02/17   5:05    9.1    9.2    9.1    94    8.2  13.0   WSW   1.08  21.0   WSW    5.6    9.3    5.8  1010.8  0.00  0.00   0.032   0.000   18.9    53    9.1   18.2   9.93  .0745    116    1    100.0    5 
22/02/17   5:10    9.1    9.1    9.1    94    8.1  13.0   WSW   1.08  18.0   WSW    5.5    9.3    5.7  1010.7  0.00  0.00   0.032   0.000   18.9    53    9.1   18.2   9.93  .0744    117    1    100.0    5 
22/02/17   5:15    9.1    9.1    9.1    95    8.3  15.0   WSW   1.25  23.0   WSW    5.2    9.3    5.4  1010.8  0.00  0.00   0.032   0.000   18.9    53    9.1   18.2   9.93  .0745    116    1    100.0    5 
22/02/17   5:20    9.0    9.1    9.0    95    8.2  16.0   WSW   1.33  22.0    SW    4.9    9.2    5.1  1010.7  0.00  0.00   0.032   0.000   18.8    53    9.0   18.1   9.93  .0745    117    1    100.0    5 
22/02/17   5:25    9.0    9.0    9.0    95    8.2  18.0   WSW   1.50  24.0   WSW    4.6    9.2    4.8  1010.7  0.00  0.00   0.032   0.000   18.8    53    9.0   18.1   9.93  .0745    117    1    100.0    5 
22/02/17   5:30    8.9    9.0    8.9    95    8.2  15.0   WSW   1.25  24.0   WSW    5.0    9.2    5.2  1010.6  0.00  0.00   0.033   0.000   18.8    53    9.0   18.1   9.93  .0745    117    1    100.0    5 
22/02/17   5:35    8.9    8.9    8.9    95    8.2  17.0   WSW   1.42  23.0    SW    4.7    9.2    4.9  1010.6  0.00  0.00   0.033   0.000   18.8    53    9.0   18.1   9.93  .0745    116    1    100.0    5 
22/02/17   5:40    8.9    8.9    8.9    95    8.2  15.0   WSW   1.25  24.0   WSW    5.0    9.2    5.2  1010.6  0.00  0.00   0.033   0.000   18.8    53    9.0   18.1   9.93  .0745    117    1    100.0    5 
22/02/17   5:45    8.9    8.9    8.9    95    8.2   3.0   WSW   0.25  16.0   WSW    8.6    9.2    8.8  1010.5  0.00  0.00   0.033   0.000   18.7    53    8.9   18.0   9.94  .0745    117    1    100.0    5 
22/02/17   5:50    8.9    8.9    8.9    96    8.3   0.0   WSW   0.00   2.0   WSW    8.9    9.1    9.1  1010.5  0.00  0.00   0.033   0.000   18.7    53    8.9   17.9   9.94  .0745    116    1    100.0    5 
22/02/17   5:55    8.9    8.9    8.9    96    8.3   0.0   WSW   0.00   4.0   WSW    8.9    9.1    9.1  1010.5  0.00  0.00   0.033   0.000   18.7    53    8.9   17.9   9.94  .0745    117    1    100.0    5 
22/02/17   6:00    8.8    8.9    8.8    96    8.2   0.0   WSW   0.00   1.0   WSW    8.8    9.1    9.1  1010.6  0.00  0.00   0.033   0.000   18.7    53    8.9   17.9   9.94  .0745    117    1    100.0    5 
22/02/17   6:05    8.8    8.9    8.8    96    8.2   0.0   WSW   0.00   1.0   WSW    8.8    9.1    9.1  1010.6  0.00  0.00   0.033   0.000   18.7    53    8.9   17.9   9.94  .0745    116    1    100.0    5 
22/02/17   6:10    8.8    8.9    8.8    96    8.2   0.0   WSW   0.00   1.0   WSW    8.8    9.1    9.1  1010.6  0.00  0.00   0.033   0.000   18.6    53    8.8   17.9   9.94  .0745    116    1    100.0    5 
22/02/17   6:15    8.8    8.8    8.8    96    8.2   0.0   ---   0.00   0.0   ---    8.8    9.1    9.1  1010.7  0.00  0.00   0.033   0.000   18.6    53    8.8   17.8   9.94  .0745    117    1    100.0    5 
22/02/17   6:20    8.8    8.8    8.8    96    8.2   0.0   ---   0.00   0.0   ---    8.8    9.1    9.1  1010.7  0.00  0.00   0.033   0.000   18.6    53    8.8   17.8   9.94  .0746    117    1    100.0    5 
22/02/17   6:25    8.8    8.9    8.8    96    8.2   0.0   ---   0.00   0.0   ---    8.8    9.1    9.1  1010.7  0.00  0.00   0.033   0.000   18.6    53    8.8   17.8   9.94  .0746    117    1    100.0    5 
22/02/17   6:30    8.8    8.9    8.8    96    8.2   0.0   ---   0.00   0.0   ---    8.8    9.1    9.1  1010.8  0.00  0.00   0.033   0.000   18.6    53    8.8   17.8   9.94  .0746    116    1    100.0    5 
22/02/17   6:35    8.9    8.9    8.8    96    8.3   0.0   ---   0.00   0.0   ---    8.9    9.1    9.1  1010.8  0.00  0.00   0.033   0.000   18.5    53    8.7   17.7   9.94  .0746    117    1    100.0    5 
22/02/17   6:40    8.9    8.9    8.9    96    8.3   0.0   ---   0.00   0.0   ---    8.9    9.2    9.2  1010.7  0.00  0.00   0.033   0.000   18.5    53    8.7   17.7   9.94  .0746    117    1    100.0    5 
22/02/17   6:45    8.9    8.9    8.9    96    8.3   0.0   ---   0.00   0.0   ---    8.9    9.1    9.1  1010.7  0.00  0.00   0.033   0.000   18.5    53    8.7   17.7   9.94  .0746    116    1    100.0    5 
22/02/17   6:50    8.9    8.9    8.9    96    8.3   0.0   WSW   0.00   1.0   WSW    8.9    9.1    9.1  1010.8  0.00  0.00   0.033   0.000   18.5    53    8.7   17.7   9.94  .0746    115    1    100.0    5 
22/02/17   6:55    8.9    8.9    8.9    96    8.3   0.0   ---   0.00   0.0   ---    8.9    9.1    9.1  1010.6  0.00  0.00   0.033   0.000   18.5    53    8.7   17.7   9.94  .0746    117    1    100.0    5 
22/02/17   7:00    8.9    8.9    8.9    96    8.3   0.0   ---   0.00   0.0   ---    8.9    9.1    9.1  1010.7  0.00  0.00   0.033   0.000   18.5    53    8.7   17.7   9.94  .0746    117    1    100.0    5 
22/02/17   7:05    8.9    8.9    8.9    96    8.3   0.0   ---   0.00   0.0   ---    8.9    9.2    9.2  1010.7  0.00  0.00   0.033   0.000   18.5    53    8.7   17.7   9.94  .0746    116    1    100.0    5 
22/02/17   7:10    9.0    9.0    8.9    96    8.4   0.0   ---   0.00   0.0   ---    9.0    9.3    9.3  1010.7  0.00  0.00   0.032   0.000   18.5    53    8.7   17.7   9.94  .0746    117    1    100.0    5 
22/02/17   7:15    9.0    9.0    8.9    96    8.4   0.0   ---   0.00   0.0   ---    9.0    9.3    9.3  1010.7  0.00  0.00   0.032   0.000   18.5    53    8.7   17.7   9.94  .0746    117    1    100.0    5 
22/02/17   7:20    9.0    9.0    8.9    96    8.4   0.0   ---   0.00   0.0   ---    9.0    9.3    9.3  1010.6  0.00  0.00   0.032   0.000   18.5    53    8.7   17.7   9.94  .0746    117    1    100.0    5 
22/02/17   7:25    9.0    9.0    8.9    96    8.4   0.0   ---   0.00   0.0   ---    9.0    9.3    9.3  1010.6  0.00  0.00   0.032   0.000   18.5    53    8.7   17.7   9.94  .0746    115    1    100.0    5 
22/02/17   7:30    9.1    9.1    9.0    96    8.5   0.0   ---   0.00   0.0   ---    9.1    9.3    9.3  1010.7  0.00  0.00   0.032   0.000   18.5    53    8.7   17.7   9.94  .0746    117    1    100.0    5 
22/02/17   7:35    9.1    9.1    9.0    96    8.5   0.0   ---   0.00   0.0   ---    9.1    9.3    9.3  1010.9  0.00  0.00   0.032   0.000   18.5    53    8.7   17.7   9.94  .0746    116    1    100.0    5 
22/02/17   7:40    9.2    9.2    9.1    96    8.6   0.0   ---   0.00   0.0   ---    9.2    9.4    9.4  1010.9  0.00  0.00   0.032   0.000   18.5    53    8.7   17.7   9.94  .0746    115    1    100.0    5 
22/02/17   7:45    9.2    9.2    9.1    96    8.6   0.0   ---   0.00   0.0   ---    9.2    9.4    9.4  1010.8  0.00  0.00   0.032   0.000   18.6    53    8.8   17.8   9.94  .0746    116    1    100.0    5 
22/02/17   7:50    9.2    9.2    9.2    96    8.6   0.0   ---   0.00   0.0   ---    9.2    9.4    9.4  1010.8  0.00  0.00   0.032   0.000   18.6    53    8.8   17.8   9.94  .0746    117    1    100.0    5 
22/02/17   7:55    9.2    9.2    9.2    96    8.6   0.0   ---   0.00   0.0   ---    9.2    9.4    9.4  1010.8  0.00  0.00   0.032   0.000   18.6    53    8.8   17.8   9.94  .0746    117    1    100.0    5 
22/02/17   8:00    9.1    9.2    9.1    96    8.5   0.0   ---   0.00   0.0   ---    9.1    9.3    9.3  1010.6  0.00  0.00   0.032   0.000   18.6    53    8.8   17.8   9.94  .0745    117    1    100.0    5 
22/02/17   8:05    9.1    9.1    9.0    96    8.5   0.0   ---   0.00   0.0   ---    9.1    9.3    9.3  1010.7  0.00  0.00   0.032   0.000   18.6    53    8.8   17.8   9.94  .0745    116    1    100.0    5 
22/02/17   8:10    9.0    9.1    9.0    96    8.4   0.0   ---   0.00   0.0   ---    9.0    9.3    9.3  1010.7  0.00  0.00   0.032   0.000   18.6    53    8.8   17.8   9.94  .0745    118    1    100.0    5 
22/02/17   8:15    8.9    9.1    8.9    96    8.3   0.0   ---   0.00   0.0   ---    8.9    9.2    9.2  1010.6  0.00  0.00   0.033   0.000   18.6    53    8.8   17.9   9.94  .0745    117    1    100.0    5 
22/02/17   8:20    8.9    9.0    8.9    96    8.3   0.0   ---   0.00   0.0   ---    8.9    9.2    9.2  1010.6  0.00  0.00   0.033   0.000   18.6    53    8.8   17.9   9.94  .0745    116    1    100.0    5 
22/02/17   8:25    8.9    8.9    8.9    96    8.3   0.0   ---   0.00   0.0   ---    8.9    9.2    9.2  1010.5  0.00  0.00   0.033   0.000   18.6    53    8.8   17.9   9.94  .0745    117    1    100.0    5 
22/02/17   8:30    8.9    8.9    8.9    96    8.3   0.0   ---   0.00   0.0   ---    8.9    9.2    9.2  1010.6  0.00  0.00   0.033   0.000   18.6    53    8.8   17.9   9.94  .0745    116    1    100.0    5 
22/02/17   8:35    9.0    9.0    8.9    96    8.4   0.0   ---   0.00   0.0   ---    9.0    9.3    9.3  1010.6  0.00  0.00   0.032   0.000   18.6    53    8.8   17.9   9.94  .0745    116    1    100.0    5 
22/02/17   8:40    9.0    9.0    9.0    96    8.4   0.0   ---   0.00   0.0   ---    9.0    9.3    9.3  1010.7  0.00  0.00   0.032   0.000   18.7    54    9.2   18.0  10.13  .0745    115    1    100.0    5 
22/02/17   8:45    9.0    9.0    9.0    96    8.4   0.0   ---   0.00   0.0   ---    9.0    9.3    9.3  1010.8  0.00  0.00   0.032   0.000   18.7    53    8.9   17.9   9.94  .0745    116    1    100.0    5 
22/02/17   8:50    9.1    9.1    9.0    96    8.5   0.0   ---   0.00   0.0   ---    9.1    9.3    9.3  1010.6  0.01  0.00   0.032   0.000   18.7    54    9.2   18.0  10.13  .0745    117    1    100.0    5 
22/02/17   8:55    9.1    9.1    9.0    96    8.5   0.0    SW   0.00   1.0    SW    9.1    9.3    9.3  1010.7  0.00  0.00   0.032   0.000   18.7    54    9.2   18.0  10.13  .0745    117    1    100.0    5 
22/02/17   9:00    9.1    9.1    9.1    96    8.5   0.0   ---   0.00   0.0   ---    9.1    9.3    9.3  1010.8  0.00  0.00   0.032   0.000   18.7    54    9.2   18.0  10.13  .0745    116    1    100.0    5 
22/02/17   9:05    9.0    9.1    9.0    96    8.4   0.0   ---   0.00   0.0   ---    9.0    9.3    9.3  1010.7  0.00  0.00   0.032   0.000   18.7    54    9.2   18.0  10.13  .0745    115    1    100.0    5 
22/02/17   9:10    9.1    9.1    9.0    96    8.5   0.0   ---   0.00   0.0   ---    9.1    9.3    9.3  1010.8  0.00  0.00   0.032   0.000   18.7    54    9.2   18.0  10.13  .0745    116    1    100.0    5 
22/02/17   9:15    9.1    9.1    9.0    96    8.5   0.0   ---   0.00   0.0   ---    9.1    9.3    9.3  1010.8  0.00  0.00   0.032   0.000   18.7    54    9.2   18.0  10.13  .0745    117    1    100.0    5 
22/02/17   9:20    9.1    9.1    9.1    96    8.5   0.0   ---   0.00   0.0   ---    9.1    9.3    9.3  1010.7  0.00  0.00   0.032   0.000   18.7    54    9.2   18.0  10.13  .0745    117    1    100.0    5 
22/02/17   9:25    9.1    9.1    9.1    96    8.5   0.0   ---   0.00   0.0   ---    9.1    9.4    9.4  1010.7  0.00  0.00   0.032   0.000   18.7    54    9.2   18.1  10.12  .0745    113    1     99.1    5 
22/02/17   9:30    9.1    9.1    9.1    96    8.5   0.0   ---   0.00   0.0   ---    9.1    9.4    9.4  1010.7  0.00  0.00   0.032   0.000   18.7    54    9.2   18.0  10.13  .0745    117    1    100.0    5 
22/02/17   9:35    9.1    9.1    9.1    96    8.5   0.0   ---   0.00   0.0   ---    9.1    9.4    9.4  1010.7  0.00  0.00   0.032   0.000   18.7    54    9.2   18.1  10.12  .0745    116    1    100.0    5 
22/02/17   9:40    9.1    9.2    9.1    96    8.5   0.0   ---   0.00   0.0   ---    9.1    9.4    9.4  1010.6  0.00  0.00   0.032   0.000   18.7    54    9.2   18.0  10.13  .0745    116    1    100.0    5 
22/02/17   9:45    9.2    9.2    9.1    96    8.6   0.0   ---   0.00   0.0   ---    9.2    9.4    9.4  1010.6  0.00  0.00   0.032   0.000   18.7    54    9.2   18.1  10.12  .0745    116    1    100.0    5 
22/02/17   9:50    9.2    9.2    9.1    96    8.6   0.0   ---   0.00   0.0   ---    9.2    9.4    9.4  1010.6  0.00  0.00   0.032   0.000   18.7    54    9.2   18.1  10.12  .0745    117    1    100.0    5 
22/02/17   9:55    9.1    9.2    9.1    96    8.5   0.0   ---   0.00   0.0   ---    9.1    9.4    9.4  1010.5  0.00  0.00   0.032   0.000   18.7    54    9.2   18.1  10.12  .0745    115    1    100.0    5 
22/02/17  10:00    9.2    9.2    9.1    96    8.6   0.0   ---   0.00   0.0   ---    9.2    9.4    9.4  1010.6  0.00  0.00   0.032   0.000   18.7    54    9.2   18.1  10.12  .0745    114    1    100.0    5 
22/02/17  10:05    9.1    9.2    9.1    96    8.5   0.0   ---   0.00   0.0   ---    9.1    9.4    9.4  1010.6  0.00  0.00   0.032   0.000   18.7    54    9.2   18.1  10.12  .0745    117    1    100.0    5 
22/02/17  10:10    9.2    9.2    9.1    96    8.6   0.0   ---   0.00   0.0   ---    9.2    9.4    9.4  1010.5  0.00  0.00   0.032   0.000   18.7    54    9.2   18.1  10.12  .0745    117    1    100.0    5 
22/02/17  10:15    9.2    9.2    9.2    96    8.6   0.0   ---   0.00   0.0   ---    9.2    9.4    9.4  1010.6  0.00  0.00   0.032   0.000   18.7    54    9.2   18.1  10.12  .0745    117    1    100.0    5 
22/02/17  10:20    9.2    9.2    9.2    96    8.6   0.0   WSW   0.00   1.0   WSW    9.2    9.5    9.5  1010.5  0.00  0.00   0.032   0.000   18.7    54    9.2   18.1  10.12  .0745    117    1    100.0    5 
22/02/17  10:25    9.2    9.2    9.2    96    8.6   0.0   ---   0.00   0.0   ---    9.2    9.5    9.5  1010.5  0.00  0.00   0.032   0.000   18.7    54    9.2   18.1  10.12  .0745    115    1    100.0    5 
22/02/17  10:30    9.2    9.2    9.2    96    8.6   0.0   ---   0.00   0.0   ---    9.2    9.4    9.4  1010.6  0.00  0.00   0.032   0.000   18.7    54    9.2   18.1  10.12  .0745    117    1    100.0    5 
22/02/17  10:35    9.2    9.2    9.2    96    8.6   0.0   ---   0.00   0.0   ---    9.2    9.4    9.4  1010.6  0.00  0.00   0.032   0.000   18.8    54    9.3   18.1  10.12  .0745    116    1    100.0    5 
22/02/17  10:40    9.2    9.2    9.2    96    8.6   0.0   ---   0.00   0.0   ---    9.2    9.4    9.4  1010.6  0.00  0.00   0.032   0.000   18.7    54    9.2   18.1  10.12  .0745    117    1    100.0    5 
22/02/17  10:45    9.2    9.2    9.2    96    8.6   0.0   ---   0.00   0.0   ---    9.2    9.5    9.5  1010.7  0.00  0.00   0.032   0.000   18.7    54    9.2   18.1  10.12  .0745    116    1    100.0    5 
22/02/17  10:50    9.2    9.2    9.2    96    8.6   0.0   ---   0.00   0.0   ---    9.2    9.5    9.5  1010.7  0.00  0.00   0.032   0.000   18.8    54    9.3   18.2  10.11  .0744    116    1    100.0    5 
22/02/17  10:55    9.3    9.3    9.2    96    8.7   0.0   ---   0.00   0.0   ---    9.3    9.6    9.6  1010.6  0.00  0.00   0.031   0.000   18.8    54    9.3   18.2  10.11  .0744    115    1    100.0    5 
22/02/17  11:00    9.3    9.3    9.3    96    8.7   0.0   WSW   0.00   1.0   WSW    9.3    9.6    9.6  1010.6  0.00  0.00   0.031   0.000   18.9    54    9.4   18.2  10.11  .0744    117    1    100.0    5 
22/02/17  11:05    9.3    9.3    9.3    96    8.7   0.0   ---   0.00   0.0   ---    9.3    9.6    9.6  1010.4  0.00  0.00   0.031   0.000   19.0    54    9.5   18.3  10.10  .0744    116    1    100.0    5 
22/02/17  11:10    9.3    9.3    9.3    96    8.7   0.0   ---   0.00   0.0   ---    9.3    9.6    9.6  1010.4  0.00  0.00   0.031   0.000   19.0    54    9.5   18.3  10.10  .0744    116    1    100.0    5 
22/02/17  11:15    9.3    9.3    9.3    96    8.7   0.0   ---   0.00   0.0   ---    9.3    9.6    9.6  1010.4  0.00  0.00   0.031   0.000   19.1    54    9.6   18.5  10.09  .0743    114    1    100.0    5 
22/02/17  11:20    9.3    9.3    9.3    96    8.7   0.0   ---   0.00   0.0   ---    9.3    9.6    9.6  1010.3  0.00  0.00   0.031   0.000   19.2    54    9.6   18.6  10.09  .0743    117    1    100.0    5 
22/02/17  11:25    9.3    9.3    9.3    96    8.7   0.0   ---   0.00   0.0   ---    9.3    9.6    9.6  1010.2  0.00  0.00   0.031   0.000   19.2    54    9.7   18.6  10.09  .0743    117    1    100.0    5 
22/02/17  11:30    9.3    9.3    9.3    96    8.7   0.0   ---   0.00   0.0   ---    9.3    9.6    9.6  1010.1  0.00  0.00   0.031   0.000   19.3    54    9.7   18.7  10.08  .0743    117    1    100.0    5 
22/02/17  11:35    9.3    9.3    9.3    96    8.7   0.0   ---   0.00   0.0   ---    9.3    9.6    9.6  1010.0  0.00  0.00   0.031   0.000   19.3    54    9.8   18.8  10.08  .0742    117    1    100.0    5 
22/02/17  11:40    9.3    9.3    9.2    96    8.7   0.0   ---   0.00   0.0   ---    9.3    9.6    9.6  1010.0  0.00  0.00   0.031   0.000   19.4    54    9.8   18.8  10.07  .0742    117    1    100.0    5 
22/02/17  11:45    9.2    9.3    9.2    96    8.6   0.0   ---   0.00   0.0   ---    9.2    9.5    9.5  1010.0  0.00  0.00   0.032   0.000   19.4    54    9.9   18.9  10.07  .0742    117    1    100.0    5 
22/02/17  11:50    9.3    9.3    9.2    96    8.7   0.0   WSW   0.00   1.0   WSW    9.3    9.6    9.6  1010.0  0.00  0.00   0.031   0.000   19.5    54    9.9   18.9  10.07  .0742    116    1    100.0    5 
22/02/17  11:55    9.3    9.3    9.3    96    8.7   0.0   ---   0.00   0.0   ---    9.3    9.6    9.6  1010.1  0.00  0.00   0.031   0.000   19.5    54    9.9   18.9  10.07  .0742    115    1    100.0    5 
22/02/17  12:00    9.3    9.3    9.3    96    8.7   0.0   ---   0.00   0.0   ---    9.3    9.6    9.6  1010.1  0.00  0.00   0.031   0.000   19.6    54   10.0   19.0  10.06  .0742    117    1    100.0    5 
22/02/17  12:05    9.3    9.3    9.3    96    8.7   0.0   ---   0.00   0.0   ---    9.3    9.6    9.6  1010.1  0.00  0.00   0.031   0.000   19.6    54   10.0   19.0  10.06  .0742    117    1    100.0    5 
22/02/17  12:10    9.4    9.4    9.3    96    8.8   0.0   ---   0.00   0.0   ---    9.4    9.7    9.7  1010.1  0.00  0.00   0.031   0.000   19.6    54   10.0   19.1  10.06  .0742    117    1    100.0    5 
22/02/17  12:15    9.4    9.4    9.4    96    8.8   0.0   WSW   0.00   1.0   WSW    9.4    9.7    9.7  1010.1  0.00  0.00   0.031   0.000   19.7    54   10.1   19.1  10.05  .0741    117    1    100.0    5 
22/02/17  12:20    9.6    9.6    9.4    96    8.9   0.0   ---   0.00   0.0   ---    9.6    9.8    9.8  1010.0  0.00  0.00   0.030   0.000   19.7    54   10.1   19.1  10.05  .0741    116    1    100.0    5 
22/02/17  12:25    9.5    9.6    9.5    96    8.9   0.0   ---   0.00   0.0   ---    9.5    9.8    9.8  1009.9  0.00  0.00   0.031   0.000   19.7    54   10.1   19.2  10.05  .0741    116    1    100.0    5 
22/02/17  12:30    9.4    9.5    9.4    96    8.8   0.0   WSW   0.00   1.0   WSW    9.4    9.7    9.7  1010.0  0.00  0.00   0.031   0.000   19.7    54   10.1   19.2  10.05  .0741    117    1    100.0    5 
22/02/17  12:35    9.4    9.5    9.4    96    8.8   0.0   ---   0.00   0.0   ---    9.4    9.7    9.7  1009.9  0.00  0.00   0.031   0.000   19.7    53    9.9   19.1   9.90  .0741    117    1    100.0    5 
22/02/17  12:40    9.4    9.4    9.4    96    8.8   0.0   ---   0.00   0.0   ---    9.4    9.7    9.7  1009.9  0.00  0.00   0.031   0.000   19.8    53    9.9   19.2   9.90  .0741    117    1    100.0    5 
22/02/17  12:45    9.4    9.4    9.4    96    8.8   0.0   ---   0.00   0.0   ---    9.4    9.7    9.7  1009.9  0.00  0.00   0.031   0.000   19.7    53    9.9   19.1   9.90  .0741    117    1    100.0    5 
22/02/17  12:50    9.4    9.4    9.4    96    8.8   0.0   ---   0.00   0.0   ---    9.4    9.7    9.7  1010.0  0.00  0.00   0.031   0.000   19.7    53    9.9   19.1   9.90  .0741    117    1    100.0    5 
22/02/17  12:55    9.4    9.4    9.4    96    8.8   0.0   WSW   0.00   1.0   WSW    9.4    9.7    9.7  1010.1  0.00  0.00   0.031   0.000   19.8    54   10.2   19.3  10.05  .0741    116    1    100.0    5 
22/02/17  13:00    9.4    9.4    9.4    96    8.8   0.0   ---   0.00   0.0   ---    9.4    9.7    9.7  1010.1  0.00  0.00   0.031   0.000   19.7    53    9.9   19.1   9.90  .0741    116    1    100.0    5 
22/02/17  13:05    9.4    9.4    9.4    97    8.9   0.0   ---   0.00   0.0   ---    9.4    9.7    9.7  1010.0  0.00  0.00   0.031   0.000   19.8    54   10.2   19.3  10.05  .0741    116    1    100.0    5 
22/02/17  13:10    9.3    9.4    9.3    97    8.9   0.0   ---   0.00   0.0   ---    9.3    9.6    9.6  1009.9  0.00  0.00   0.031   0.000   19.8    53    9.9   19.2   9.90  .0741    114    1    100.0    5 
22/02/17  13:15    9.3    9.3    9.3    97    8.9   0.0   ---   0.00   0.0   ---    9.3    9.6    9.6  1009.7  0.00  0.00   0.031   0.000   19.8    53    9.9   19.2   9.90  .0741    117    1    100.0    5 
22/02/17  13:20    9.3    9.3    9.3    97    8.8   0.0   ---   0.00   0.0   ---    9.3    9.6    9.6  1009.7  0.00  0.00   0.031   0.000   19.7    53    9.9   19.1   9.90  .0741    117    1    100.0    5 
22/02/17  13:25    9.3    9.3    9.2    97    8.8   0.0   ---   0.00   0.0   ---    9.3    9.6    9.6  1009.6  0.00  0.00   0.031   0.000   19.7    53    9.9   19.1   9.90  .0741    117    1    100.0    5 
22/02/17  13:30    9.2    9.3    9.2    97    8.8   0.0   ---   0.00   0.0   ---    9.2    9.5    9.5  1009.5  0.00  0.00   0.032   0.000   19.7    53    9.9   19.1   9.90  .0741    118    1    100.0    5 
22/02/17  13:35    9.3    9.3    9.3    98    9.0   0.0   ---   0.00   0.0   ---    9.3    9.6    9.6  1009.4  0.00  0.00   0.031   0.000   19.7    53    9.9   19.1   9.90  .0741    116    1    100.0    5 
22/02/17  13:40    9.3    9.3    9.3    98    9.0   0.0   ---   0.00   0.0   ---    9.3    9.7    9.7  1009.4  0.00  0.00   0.031   0.000   19.7    53    9.9   19.1   9.90  .0741    117    1    100.0    5 
22/02/17  13:45    9.3    9.3    9.3    98    9.0   0.0   WSW   0.00   1.0   WSW    9.3    9.6    9.6  1009.4  0.00  0.00   0.031   0.000   19.8    53    9.9   19.2   9.90  .0741    117    1    100.0    5 
22/02/17  13:50    9.3    9.3    9.3    98    9.0   0.0   ---   0.00   0.0   ---    9.3    9.7    9.7  1009.4  0.00  0.00   0.031   0.000   19.8    53    9.9   19.2   9.90  .0741    117    1    100.0    5 
22/02/17  13:55    9.3    9.3    9.3    98    9.0   0.0   ---   0.00   0.0   ---    9.3    9.7    9.7  1009.5  0.00  0.00   0.031   0.000   19.8    53    9.9   19.2   9.90  .0741    117    1    100.0    5 
22/02/17  14:00    9.3    9.3    9.3    98    9.0   0.0   WSW   0.00   1.0   WSW    9.3    9.7    9.7  1009.4  0.00  0.00   0.031   0.000   19.8    53    9.9   19.2   9.90  .0741    116    1    100.0    5 
22/02/17  14:05    9.3    9.3    9.3    97    8.9   0.0   ---   0.00   0.0   ---    9.3    9.6    9.6  1009.4  0.00  0.00   0.031   0.000   19.8    53   10.0   19.3   9.90  .0741    117    1    100.0    5 
22/02/17  14:10    9.3    9.3    9.3    97    8.9   0.0   ---   0.00   0.0   ---    9.3    9.6    9.6  1009.4  0.00  0.00   0.031   0.000   19.8    53    9.9   19.2   9.90  .0741    116    1    100.0    5 
22/02/17  14:15    9.3    9.3    9.3    97    8.8   0.0   ---   0.00   0.0   ---    9.3    9.6    9.6  1009.4  0.00  0.00   0.031   0.000   19.7    53    9.9   19.1   9.90  .0741    117    1    100.0    5 
22/02/17  14:20    9.3    9.3    9.3    97    8.8   0.0   ---   0.00   0.0   ---    9.3    9.6    9.6  1009.4  0.00  0.00   0.031   0.000   19.7    53    9.9   19.1   9.90  .0741    114    1    100.0    5 
22/02/17  14:25    9.3    9.3    9.2    97    8.8   0.0   ---   0.00   0.0   ---    9.3    9.6    9.6  1009.4  0.00  0.00   0.031   0.000   19.7    53    9.8   19.1   9.90  .0741    117    1    100.0    5 
22/02/17  14:30    9.3    9.3    9.2    97    8.8   0.0   ---   0.00   0.0   ---    9.3    9.6    9.6  1009.4  0.00  0.00   0.031   0.000   19.7    53    9.8   19.1   9.90  .0741    115    1    100.0    5 
22/02/17  14:35    9.2    9.3    9.2    97    8.8   0.0   ---   0.00   0.0   ---    9.2    9.5    9.5  1009.3  0.00  0.00   0.032   0.000   19.6    53    9.8   19.0   9.90  .0741    118    1    100.0    5 
22/02/17  14:40    9.2    9.2    9.2    97    8.8   0.0   WSW   0.00   1.0   WSW    9.2    9.5    9.5  1009.2  0.00  0.00   0.032   0.000   19.6    53    9.8   19.0   9.90  .0741    116    1    100.0    5 
22/02/17  14:45    9.2    9.2    9.2    97    8.8   0.0   ---   0.00   0.0   ---    9.2    9.5    9.5  1009.2  0.00  0.00   0.032   0.000   19.6    53    9.8   19.0   9.90  .0741    115    1    100.0    5 
22/02/17  14:50    9.2    9.2    9.2    97    8.8   0.0   ---   0.00   0.0   ---    9.2    9.5    9.5  1009.2  0.00  0.00   0.032   0.000   19.6    53    9.8   19.0   9.90  .0741    115    1    100.0    5 
22/02/17  14:55    9.2    9.2    9.2    97    8.7   0.0   ---   0.00   0.0   ---    9.2    9.4    9.4  1009.2  0.00  0.00   0.032   0.000   19.6    53    9.7   18.9   9.91  .0741    115    1    100.0    5 
22/02/17  15:00    9.2    9.2    9.2    98    8.9   0.0   ---   0.00   0.0   ---    9.2    9.4    9.4  1009.1  0.00  0.00   0.032   0.000   19.6    53    9.7   18.9   9.91  .0741    117    1    100.0    5 
22/02/17  15:05    9.2    9.2    9.2    98    8.9   0.0   ---   0.00   0.0   ---    9.2    9.4    9.4  1009.1  0.00  0.00   0.032   0.000   19.6    53    9.7   18.9   9.91  .0741    117    1    100.0    5 
22/02/17  15:10    9.2    9.2    9.2    98    8.9   0.0   ---   0.00   0.0   ---    9.2    9.4    9.4  1009.0  0.00  0.00   0.032   0.000   19.6    53    9.7   18.9   9.91  .0741    116    1    100.0    5 
22/02/17  15:15    9.2    9.2    9.2    98    8.9   0.0   ---   0.00   0.0   ---    9.2    9.4    9.4  1009.1  0.00  0.00   0.032   0.000   19.5    53    9.7   18.9   9.91  .0741    116    1    100.0    5 
22/02/17  15:20    9.2    9.2    9.2    98    8.9   0.0   ---   0.00   0.0   ---    9.2    9.4    9.4  1009.1  0.00  0.00   0.032   0.000   19.5    53    9.7   18.9   9.91  .0741    117    1    100.0    5 
22/02/17  15:25    9.2    9.2    9.2    97    8.7   0.0   ---   0.00   0.0   ---    9.2    9.4    9.4  1009.0  0.00  0.00   0.032   0.000   19.5    53    9.7   18.9   9.91  .0741    114    1    100.0    5 
22/02/17  15:30    9.2    9.2    9.2    98    8.9   0.0   ---   0.00   0.0   ---    9.2    9.4    9.4  1009.0  0.00  0.00   0.032   0.000   19.6    53    9.7   18.9   9.91  .0741    114    1    100.0    5 
22/02/17  15:35    9.2    9.2    9.2    98    8.9   0.0   ---   0.00   0.0   ---    9.2    9.4    9.4  1008.9  0.00  0.00   0.032   0.000   19.6    53    9.8   19.0   9.90  .0741    117    1    100.0    5 
22/02/17  15:40    9.2    9.2    9.2    98    8.9   0.0   ---   0.00   0.0   ---    9.2    9.4    9.4  1008.9  0.00  0.00   0.032   0.000   19.6    53    9.8   19.0   9.90  .0741    114    1    100.0    5 
22/02/17  15:45    9.2    9.2    9.2    98    8.9   0.0   ---   0.00   0.0   ---    9.2    9.5    9.5  1008.8  0.00  0.00   0.032   0.000   19.6    53    9.8   19.0   9.90  .0741    116    1    100.0    5 
22/02/17  15:50    9.2    9.2    9.2    97    8.8   0.0   ---   0.00   0.0   ---    9.2    9.5    9.5  1008.8  0.00  0.00   0.032   0.000   19.7    53    9.8   19.1   9.90  .0741    111    1     97.4    5 
22/02/17  15:55    9.2    9.2    9.2    97    8.8   0.0   ---   0.00   0.0   ---    9.2    9.5    9.5  1008.8  0.00  0.00   0.032   0.000   19.7    53    9.8   19.1   9.90  .0741    112    1     98.2    5 
22/02/17  16:00    9.2    9.2    9.2    97    8.7   0.0   ---   0.00   0.0   ---    9.2    9.4    9.4  1008.8  0.00  0.00   0.032   0.000   19.7    53    9.9   19.1   9.90  .0740    115    1    100.0    5 
22/02/17  16:05    9.2    9.2    9.2    98    8.9   0.0   ---   0.00   0.0   ---    9.2    9.4    9.4  1008.8  0.00  0.00   0.032   0.000   19.7    53    9.9   19.1   9.90  .0740    108    1     94.7    5 
22/02/17  16:10    9.2    9.2    9.2    98    8.9   0.0   WSW   0.00   1.0   WSW    9.2    9.4    9.4  1008.8  0.00  0.00   0.032   0.000   19.7    53    9.9   19.1   9.90  .0740    103    1     90.4    5 
22/02/17  16:15    9.2    9.2    9.2    98    8.9   0.0   ---   0.00   0.0   ---    9.2    9.4    9.4  1008.8  0.00  0.00   0.032   0.000   19.7    53    9.9   19.1   9.90  .0740    103    1     90.4    5 
22/02/17  16:20    9.2    9.2    9.2    97    8.7   0.0   ---   0.00   0.0   ---    9.2    9.4    9.4  1008.7  0.00  0.00   0.032   0.000   19.7    53    9.9   19.1   9.90  .0740    109    1     95.6    5 
22/02/17  16:25    9.1    9.2    9.1    97    8.7   0.0   ---   0.00   0.0   ---    9.1    9.4    9.4  1008.7  0.00  0.00   0.032   0.000   19.7    53    9.9   19.1   9.90  .0740    112    1     98.2    5 
100530